Time,TemperatureF,DewpointF,PressureIn,WindDirection,WindDirectionDegrees,WindSpeedMPH,WindSpeedGustMPH,Humidity,HourlyPrecipIn,Conditions,Clouds,dailyrainin,SoftwareType,DateUTC
2013-04-14 00:00:00,55.9,11.8,29.85,East,88,0.0,0.0,17,0.00,,---,0.00,VWS V14.01,2013-04-14 05:00:00,
2013-04-14 00:01:00,55.9,11.8,29.85,East,88,0.0,0.0,17,0.00,,---,0.00,VWS V14.01,2013-04-14 05:01:00,
2013-04-14 00:05:00,56.1,11.9,29.85,East,88,0.0,0.0,17,0.00,,---,0.00,VWS V14.01,2013-04-14 05:05:00,
2013-04-14 00:06:00,56.1,11.9,29.85,East,88,0.0,0.0,17,0.00,,---,0.00,VWS V14.01,2013-04-14 05:06:00,
2013-04-14 00:07:00,56.1,11.9,29.85,East,88,0.0,0.0,17,0.00,,---,0.00,VWS V14.01,2013-04-14 05:07:00,
2013-04-14 00:10:00,56.3,12.1,29.85,East,88,0.0,0.0,17,0.00,,---,0.00,VWS V14.01,2013-04-14 05:10:00,
2013-04-14 00:11:00,56.3,12.1,29.85,East,88,0.0,0.0,17,0.00,,---,0.00,VWS V14.01,2013-04-14 05:11:00,
2013-04-14 00:12:00,56.3,12.1,29.85,East,88,0.0,0.0,17,0.00,,---,0.00,VWS V14.01,2013-04-14 05:12:00,
2013-04-14 00:15:00,56.7,12.4,29.94,East,88,0.0,0.0,17,0.00,,---,0.00,VWS V14.01,2013-04-14 05:15:00,
2013-04-14 00:17:00,56.7,12.4,29.94,East,88,0.0,0.0,17,0.00,,---,0.00,VWS V14.01,2013-04-14 05:17:00,
2013-04-14 00:20:00,56.7,12.4,29.94,East,88,0.0,0.0,17,0.00,,---,0.00,VWS V14.01,2013-04-14 05:20:00,
2013-04-14 00:22:00,56.7,12.4,29.94,East,88,0.0,0.0,17,0.00,,---,0.00,VWS V14.01,2013-04-14 05:22:00,
2013-04-14 00:23:00,56.7,12.4,29.94,East,88,0.0,0.0,17,0.00,,---,0.00,VWS V14.01,2013-04-14 05:23:00,
2013-04-14 00:25:00,56.8,12.5,29.94,East,88,0.0,0.0,17,0.00,,---,0.00,VWS V14.01,2013-04-14 05:25:00,
2013-04-14 00:27:00,56.8,12.5,29.94,East,88,0.0,0.0,17,0.00,,---,0.00,VWS V14.01,2013-04-14 05:27:00,
2013-04-14 00:28:00,56.8,12.5,29.94,East,88,0.0,0.0,17,0.00,,---,0.00,VWS V14.01,2013-04-14 05:28:00,
2013-04-14 00:31:00,56.8,12.5,29.94,East,88,0.0,0.0,17,0.00,,---,0.00,VWS V14.01,2013-04-14 05:31:00,
2013-04-14 00:32:00,56.8,12.5,29.94,East,88,0.0,0.0,17,0.00,,---,0.00,VWS V14.01,2013-04-14 05:32:00,
2013-04-14 00:33:00,56.8,12.5,29.88,East,88,2.2,2.2,17,0.00,,---,0.00,VWS V14.01,2013-04-14 05:33:00,
2013-04-14 00:36:00,56.8,12.5,29.88,East,88,0.0,0.0,17,0.00,,---,0.00,VWS V14.01,2013-04-14 05:36:00,
2013-04-14 00:37:00,56.8,12.5,29.88,East,88,0.0,0.0,17,0.00,,---,0.00,VWS V14.01,2013-04-14 05:37:00,
2013-04-14 00:38:00,57.0,12.7,29.88,East,88,0.0,0.0,17,0.00,,---,0.00,VWS V14.01,2013-04-14 05:38:00,
2013-04-14 00:41:00,57.0,12.7,29.88,East,88,0.0,0.0,17,0.00,,---,0.00,VWS V14.01,2013-04-14 05:41:00,
2013-04-14 00:42:00,57.0,12.7,29.88,East,89,3.6,3.6,17,0.00,,---,0.00,VWS V14.01,2013-04-14 05:42:00,
2013-04-14 00:43:00,57.0,12.7,29.88,East,89,3.6,3.6,17,0.00,,---,0.00,VWS V14.01,2013-04-14 05:43:00,
2013-04-14 00:46:00,57.0,12.7,29.88,East,89,2.7,2.7,17,0.00,,---,0.00,VWS V14.01,2013-04-14 05:46:00,
2013-04-14 00:47:00,57.0,12.7,29.83,East,89,2.7,2.7,17,0.00,,---,0.00,VWS V14.01,2013-04-14 05:47:00,
2013-04-14 00:48:00,57.2,12.8,29.83,East,89,2.7,2.7,17,0.00,,---,0.00,VWS V14.01,2013-04-14 05:48:00,
2013-04-14 00:51:00,57.2,12.8,29.83,East,89,2.7,2.7,17,0.00,,---,0.00,VWS V14.01,2013-04-14 05:51:00,
2013-04-14 00:52:00,57.2,12.8,29.83,East,89,2.7,2.7,17,0.00,,---,0.00,VWS V14.01,2013-04-14 05:52:00,
2013-04-14 00:53:00,57.2,12.8,29.83,SE,128,0.0,0.0,17,0.00,,---,0.00,VWS V14.01,2013-04-14 05:53:00,
2013-04-14 00:56:00,57.2,12.8,29.83,SSE,154,2.7,2.7,17,0.00,,---,0.00,VWS V14.01,2013-04-14 05:56:00,
2013-04-14 00:57:00,57.2,12.8,29.83,SSE,154,2.7,2.7,17,0.00,,---,0.00,VWS V14.01,2013-04-14 05:57:00,
2013-04-14 00:58:00,57.2,12.8,29.83,SE,126,2.2,2.2,17,0.00,,---,0.00,VWS V14.01,2013-04-14 05:58:00,
2013-04-14 01:01:00,57.2,12.8,29.83,South,171,2.2,4.0,17,0.00,,---,0.00,VWS V14.01,2013-04-14 06:01:00,
2013-04-14 01:02:00,57.2,12.8,29.83,South,171,2.2,2.2,17,0.00,,---,0.00,VWS V14.01,2013-04-14 06:02:00,
2013-04-14 01:03:00,57.4,12.9,29.94,SSE,153,4.0,4.0,17,0.00,,---,0.00,VWS V14.01,2013-04-14 06:03:00,
2013-04-14 01:07:00,57.4,12.9,29.94,South,187,0.0,3.1,17,0.00,,---,0.00,VWS V14.01,2013-04-14 06:07:00,
2013-04-14 01:08:00,57.4,12.9,29.94,South,187,0.0,0.0,17,0.00,,---,0.00,VWS V14.01,2013-04-14 06:08:00,
2013-04-14 01:12:00,57.4,12.9,29.94,SE,141,3.1,3.1,17,0.00,,---,0.00,VWS V14.01,2013-04-14 06:12:00,
2013-04-14 01:13:00,57.4,12.9,29.94,South,191,2.7,2.7,17,0.00,,---,0.00,VWS V14.01,2013-04-14 06:13:00,
2013-04-14 01:17:00,57.2,12.8,29.94,South,178,2.7,3.6,17,0.00,,---,0.00,VWS V14.01,2013-04-14 06:17:00,
2013-04-14 01:18:00,57.2,12.8,29.91,South,175,0.0,0.0,17,0.00,,---,0.00,VWS V14.01,2013-04-14 06:18:00,
2013-04-14 01:22:00,57.2,12.8,29.91,SSE,153,2.7,2.7,17,0.00,,---,0.00,VWS V14.01,2013-04-14 06:22:00,
2013-04-14 01:23:00,57.2,12.8,29.91,South,179,3.1,3.1,17,0.00,,---,0.00,VWS V14.01,2013-04-14 06:23:00,
2013-04-14 01:24:00,57.2,12.8,29.91,South,179,3.1,3.1,17,0.00,,---,0.00,VWS V14.01,2013-04-14 06:24:00,
2013-04-14 01:27:00,57.2,12.8,29.91,South,184,3.1,3.1,17,0.00,,---,0.00,VWS V14.01,2013-04-14 06:27:00,
2013-04-14 01:28:00,57.2,12.8,29.91,South,184,3.1,3.1,17,0.00,,---,0.00,VWS V14.01,2013-04-14 06:28:00,
2013-04-14 01:29:00,57.2,12.8,29.91,South,184,3.1,3.1,17,0.00,,---,0.00,VWS V14.01,2013-04-14 06:29:00,
2013-04-14 01:32:00,57.0,12.7,29.91,South,182,3.1,3.1,17,0.00,,---,0.00,VWS V14.01,2013-04-14 06:32:00,
2013-04-14 01:33:00,56.8,12.5,29.91,SE,145,0.0,0.0,17,0.00,,---,0.00,VWS V14.01,2013-04-14 06:33:00,
2013-04-14 01:34:00,56.8,12.5,29.91,SSE,154,2.7,2.7,17,0.00,,---,0.00,VWS V14.01,2013-04-14 06:34:00,
2013-04-14 01:37:00,56.8,12.5,29.88,South,176,0.0,2.7,17,0.00,,---,0.00,VWS V14.01,2013-04-14 06:37:00,
2013-04-14 01:38:00,56.8,12.5,29.88,South,176,0.0,0.0,17,0.00,,---,0.00,VWS V14.01,2013-04-14 06:38:00,
2013-04-14 01:39:00,56.8,12.5,29.88,South,176,0.0,0.0,17,0.00,,---,0.00,VWS V14.01,2013-04-14 06:39:00,
2013-04-14 01:42:00,56.7,12.4,29.88,South,176,0.0,0.0,17,0.00,,---,0.00,VWS V14.01,2013-04-14 06:42:00,
2013-04-14 01:43:00,56.7,12.4,29.88,South,176,0.0,0.0,17,0.00,,---,0.00,VWS V14.01,2013-04-14 06:43:00,
2013-04-14 01:44:00,56.7,12.4,29.88,South,191,2.7,2.7,17,0.00,,---,0.00,VWS V14.01,2013-04-14 06:44:00,
2013-04-14 01:47:00,56.7,12.4,29.88,SSW,210,2.2,2.2,17,0.00,,---,0.00,VWS V14.01,2013-04-14 06:47:00,
2013-04-14 01:48:00,56.7,12.4,29.88,SSW,210,2.2,2.2,17,0.00,,---,0.00,VWS V14.01,2013-04-14 06:48:00,
2013-04-14 01:49:00,56.7,12.4,29.94,SSW,210,2.2,2.2,17,0.00,,---,0.00,VWS V14.01,2013-04-14 06:49:00,
2013-04-14 01:53:00,56.3,12.1,29.94,South,179,0.0,0.0,17,0.00,,---,0.00,VWS V14.01,2013-04-14 06:53:00,
2013-04-14 01:54:00,56.3,12.1,29.94,South,179,0.0,0.0,17,0.00,,---,0.00,VWS V14.01,2013-04-14 06:54:00,
2013-04-14 01:58:00,56.3,12.1,29.94,South,176,3.6,3.6,17,0.00,,---,0.00,VWS V14.01,2013-04-14 06:58:00,
2013-04-14 01:59:00,56.3,12.1,29.94,SSE,151,3.6,3.6,17,0.00,,---,0.00,VWS V14.01,2013-04-14 06:59:00,
2013-04-14 02:03:00,56.3,12.1,29.94,SE,139,3.1,3.1,17,0.00,,---,0.00,VWS V14.01,2013-04-14 07:03:00,
2013-04-14 02:04:00,56.3,12.1,29.94,WSW,253,3.1,5.8,17,0.00,,---,0.00,VWS V14.01,2013-04-14 07:04:00,
2013-04-14 02:05:00,56.3,12.1,29.94,WSW,253,3.1,5.8,17,0.00,,---,0.00,VWS V14.01,2013-04-14 07:05:00,
2013-04-14 02:08:00,56.1,11.9,29.94,SSW,207,2.2,2.2,17,0.00,,---,0.00,VWS V14.01,2013-04-14 07:08:00,
2013-04-14 02:09:00,56.1,11.9,29.94,SSW,207,2.2,2.2,17,0.00,,---,0.00,VWS V14.01,2013-04-14 07:09:00,
2013-04-14 02:10:00,56.1,11.9,29.94,SSW,207,2.2,2.2,17,0.00,,---,0.00,VWS V14.01,2013-04-14 07:10:00,
2013-04-14 02:13:00,56.1,11.9,29.94,SE,135,3.1,3.1,17,0.00,,---,0.00,VWS V14.01,2013-04-14 07:13:00,
2013-04-14 02:14:00,56.1,11.9,29.94,SE,135,3.1,3.1,17,0.00,,---,0.00,VWS V14.01,2013-04-14 07:14:00,
2013-04-14 02:15:00,56.1,11.9,29.94,SE,135,3.1,3.1,17,0.00,,---,0.00,VWS V14.01,2013-04-14 07:15:00,
2013-04-14 02:18:00,56.1,11.9,30.21,ESE,122,2.2,2.2,17,0.00,,---,0.00,VWS V14.01,2013-04-14 07:18:00,
2013-04-14 02:19:00,55.9,11.8,30.21,ESE,122,2.2,2.2,17,0.00,,---,0.00,VWS V14.01,2013-04-14 07:19:00,
2013-04-14 02:20:00,55.9,11.8,30.21,SSE,161,3.1,3.1,17,0.00,,---,0.00,VWS V14.01,2013-04-14 07:20:00,
2013-04-14 02:23:00,55.9,11.8,30.21,SE,136,2.7,2.7,17,0.00,,---,0.00,VWS V14.01,2013-04-14 07:23:00,
2013-04-14 02:24:00,55.9,11.8,30.21,SE,136,3.1,3.1,17,0.00,,---,0.00,VWS V14.01,2013-04-14 07:24:00,
2013-04-14 02:25:00,55.9,11.8,30.21,SE,136,3.1,3.1,17,0.00,,---,0.00,VWS V14.01,2013-04-14 07:25:00,
2013-04-14 02:28:00,55.9,11.8,30.21,SSE,148,2.7,2.7,17,0.00,,---,0.00,VWS V14.01,2013-04-14 07:28:00,
2013-04-14 02:29:00,55.8,11.6,30.21,SSE,148,2.7,2.7,17,0.00,,---,0.00,VWS V14.01,2013-04-14 07:29:00,
2013-04-14 02:30:00,55.8,11.6,30.21,SSE,148,2.7,2.7,17,0.00,,---,0.00,VWS V14.01,2013-04-14 07:30:00,
2013-04-14 02:33:00,55.8,11.6,30.36,South,178,4.0,4.0,17,0.00,,---,0.00,VWS V14.01,2013-04-14 07:33:00,
2013-04-14 02:34:00,55.8,11.6,30.36,SSW,196,2.7,2.7,17,0.00,,---,0.00,VWS V14.01,2013-04-14 07:34:00,
2013-04-14 02:35:00,55.8,11.6,30.36,SSW,196,2.7,2.7,17,0.00,,---,0.00,VWS V14.01,2013-04-14 07:35:00,
2013-04-14 02:38:00,55.8,11.6,30.36,SSW,210,5.8,5.8,17,0.00,,---,0.00,VWS V14.01,2013-04-14 07:38:00,
2013-04-14 02:39:00,55.8,11.6,30.36,SSW,210,5.8,5.8,17,0.00,,---,0.00,VWS V14.01,2013-04-14 07:39:00,
2013-04-14 02:40:00,55.8,11.6,30.36,SSW,194,3.6,5.8,17,0.00,,---,0.00,VWS V14.01,2013-04-14 07:40:00,
2013-04-14 02:43:00,55.8,11.6,30.36,South,184,2.7,2.7,17,0.00,,---,0.00,VWS V14.01,2013-04-14 07:43:00,
2013-04-14 02:44:00,55.8,11.6,30.36,SSW,193,2.7,2.7,17,0.00,,---,0.00,VWS V14.01,2013-04-14 07:44:00,
2013-04-14 02:45:00,55.8,11.6,30.36,SSW,193,2.7,2.7,17,0.00,,---,0.00,VWS V14.01,2013-04-14 07:45:00,
2013-04-14 02:48:00,55.8,11.6,30.30,SSE,164,0.0,0.0,17,0.00,,---,0.00,VWS V14.01,2013-04-14 07:48:00,
2013-04-14 02:49:00,55.8,11.6,30.30,SSE,160,2.7,2.7,17,0.00,,---,0.00,VWS V14.01,2013-04-14 07:49:00,
2013-04-14 02:50:00,55.8,11.6,30.30,SSE,160,2.7,2.7,17,0.00,,---,0.00,VWS V14.01,2013-04-14 07:50:00,
2013-04-14 02:51:00,55.8,11.6,30.30,SW,222,3.6,3.6,17,0.00,,---,0.00,VWS V14.01,2013-04-14 07:51:00,
2013-04-14 02:53:00,55.8,11.6,30.30,SSW,196,5.8,5.8,17,0.00,,---,0.00,VWS V14.01,2013-04-14 07:53:00,
2013-04-14 02:54:00,55.8,11.6,30.30,SSW,196,5.8,5.8,17,0.00,,---,0.00,VWS V14.01,2013-04-14 07:54:00,
2013-04-14 02:55:00,55.8,11.6,30.30,South,182,4.0,5.8,17,0.00,,---,0.00,VWS V14.01,2013-04-14 07:55:00,
2013-04-14 02:56:00,55.8,11.6,30.30,South,182,4.0,4.0,17,0.00,,---,0.00,VWS V14.01,2013-04-14 07:56:00,
2013-04-14 02:58:00,55.8,11.6,30.30,SSE,156,3.6,3.6,17,0.00,,---,0.00,VWS V14.01,2013-04-14 07:58:00,
2013-04-14 02:59:00,55.8,11.6,30.30,SSE,156,3.6,3.6,17,0.00,,---,0.00,VWS V14.01,2013-04-14 07:59:00,
2013-04-14 03:00:00,55.8,11.6,30.36,SSE,156,3.6,3.6,17,0.00,,---,0.00,VWS V14.01,2013-04-14 08:00:00,
2013-04-14 03:01:00,55.8,11.6,30.36,SSE,156,3.6,3.6,17,0.00,,---,0.00,VWS V14.01,2013-04-14 08:01:00,
2013-04-14 03:04:00,55.9,11.8,30.36,SW,226,3.6,3.6,17,0.00,,---,0.00,VWS V14.01,2013-04-14 08:04:00,
2013-04-14 03:05:00,55.9,11.8,30.36,South,182,2.7,2.7,17,0.00,,---,0.00,VWS V14.01,2013-04-14 08:05:00,
2013-04-14 03:06:00,55.9,11.8,30.36,South,182,2.7,2.7,17,0.00,,---,0.00,VWS V14.01,2013-04-14 08:06:00,
2013-04-14 03:09:00,55.9,11.8,30.36,SSW,212,3.6,3.6,17,0.00,,---,0.00,VWS V14.01,2013-04-14 08:09:00,
2013-04-14 03:10:00,55.9,11.8,30.36,SSW,212,3.6,3.6,17,0.00,,---,0.00,VWS V14.01,2013-04-14 08:10:00,
2013-04-14 03:11:00,55.9,11.8,30.36,SSE,156,9.6,9.6,17,0.00,,---,0.00,VWS V14.01,2013-04-14 08:11:00,
2013-04-14 03:14:00,55.8,11.6,30.36,SW,219,6.3,6.3,17,0.00,,---,0.00,VWS V14.01,2013-04-14 08:14:00,
2013-04-14 03:15:00,55.8,11.6,30.65,South,183,6.3,6.3,17,0.00,,---,0.00,VWS V14.01,2013-04-14 08:15:00,
2013-04-14 03:16:00,55.8,11.6,30.65,South,183,6.3,6.3,17,0.00,,---,0.00,VWS V14.01,2013-04-14 08:16:00,
2013-04-14 03:19:00,55.9,11.8,30.65,South,182,4.9,5.4,17,0.00,,---,0.00,VWS V14.01,2013-04-14 08:19:00,
2013-04-14 03:20:00,55.9,11.8,30.65,South,182,4.9,4.9,17,0.00,,---,0.00,VWS V14.01,2013-04-14 08:20:00,
2013-04-14 03:21:00,55.9,11.8,30.65,South,182,4.9,4.9,17,0.00,,---,0.00,VWS V14.01,2013-04-14 08:21:00,
2013-04-14 03:24:00,55.9,11.8,30.65,SW,214,4.0,4.0,17,0.00,,---,0.00,VWS V14.01,2013-04-14 08:24:00,
2013-04-14 03:25:00,55.9,11.8,30.65,South,188,4.0,4.0,17,0.00,,---,0.00,VWS V14.01,2013-04-14 08:25:00,
2013-04-14 03:26:00,55.9,11.8,30.65,SSE,167,2.7,2.7,17,0.00,,---,0.00,VWS V14.01,2013-04-14 08:26:00,
2013-04-14 03:29:00,55.9,11.8,30.65,SW,214,5.8,5.8,17,0.00,,---,0.00,VWS V14.01,2013-04-14 08:29:00,
2013-04-14 03:30:00,55.9,11.8,30.65,SW,214,5.8,5.8,17,0.00,,---,0.00,VWS V14.01,2013-04-14 08:30:00,
2013-04-14 03:32:00,55.8,11.6,30.65,SW,214,5.8,5.8,17,0.00,,---,0.00,VWS V14.01,2013-04-14 08:32:00,
2013-04-14 03:34:00,55.8,11.6,30.65,SSW,195,4.0,4.0,17,0.00,,---,0.00,VWS V14.01,2013-04-14 08:34:00,
2013-04-14 03:35:00,55.8,11.6,30.80,SSW,195,4.0,4.0,17,0.00,,---,0.00,VWS V14.01,2013-04-14 08:35:00,
2013-04-14 03:37:00,55.8,11.6,30.80,SSW,209,6.3,6.3,17,0.00,,---,0.00,VWS V14.01,2013-04-14 08:37:00,
2013-04-14 03:39:00,55.8,11.6,30.80,SSW,210,5.8,6.3,17,0.00,,---,0.00,VWS V14.01,2013-04-14 08:39:00,
2013-04-14 03:40:00,55.8,11.6,30.80,SSW,210,5.8,5.8,17,0.00,,---,0.00,VWS V14.01,2013-04-14 08:40:00,
2013-04-14 03:42:00,55.8,11.6,30.80,SSW,210,5.8,5.8,17,0.00,,---,0.00,VWS V14.01,2013-04-14 08:42:00,
2013-04-14 03:45:00,55.6,11.5,30.80,South,172,3.1,3.1,17,0.00,,---,0.00,VWS V14.01,2013-04-14 08:45:00,
2013-04-14 03:48:00,55.6,11.5,30.80,SE,136,3.1,3.1,17,0.00,,---,0.00,VWS V14.01,2013-04-14 08:48:00,
2013-04-14 03:50:00,55.4,11.3,30.80,SE,136,3.1,3.1,17,0.00,,---,0.00,VWS V14.01,2013-04-14 08:50:00,
2013-04-14 03:51:00,55.4,11.3,30.80,SE,140,3.6,3.6,17,0.00,,---,0.00,VWS V14.01,2013-04-14 08:51:00,
2013-04-14 03:53:00,55.4,11.3,30.80,SE,132,5.4,5.4,17,0.00,,---,0.00,VWS V14.01,2013-04-14 08:53:00,
2013-04-14 03:55:00,55.4,11.3,30.80,SE,132,5.4,5.4,17,0.00,,---,0.00,VWS V14.01,2013-04-14 08:55:00,
2013-04-14 03:56:00,55.4,11.3,30.80,SE,132,5.4,5.4,17,0.00,,---,0.00,VWS V14.01,2013-04-14 08:56:00,
2013-04-14 03:57:00,55.4,11.3,30.80,SE,132,5.4,5.4,17,0.00,,---,0.00,VWS V14.01,2013-04-14 08:57:00,
2013-04-14 03:58:00,55.4,11.3,30.80,South,180,4.0,4.0,17,0.00,,---,0.00,VWS V14.01,2013-04-14 08:58:00,
2013-04-14 04:00:00,55.4,11.3,30.80,SSW,199,2.7,2.7,17,0.00,,---,0.00,VWS V14.01,2013-04-14 09:00:00,
2013-04-14 04:01:00,55.4,11.3,30.80,SSE,159,5.4,5.4,17,0.00,,---,0.00,VWS V14.01,2013-04-14 09:01:00,
2013-04-14 04:02:00,55.4,11.3,30.89,SSE,159,5.4,5.4,17,0.00,,---,0.00,VWS V14.01,2013-04-14 09:02:00,
2013-04-14 04:03:00,55.4,11.3,30.89,SSE,159,5.4,5.4,17,0.00,,---,0.00,VWS V14.01,2013-04-14 09:03:00,
2013-04-14 04:05:00,55.4,11.3,30.89,South,186,2.7,6.3,17,0.00,,---,0.00,VWS V14.01,2013-04-14 09:05:00,
2013-04-14 04:07:00,55.4,11.3,30.89,South,186,2.7,2.7,17,0.00,,---,0.00,VWS V14.01,2013-04-14 09:07:00,
2013-04-14 04:08:00,55.4,11.3,30.89,South,186,2.7,2.7,17,0.00,,---,0.00,VWS V14.01,2013-04-14 09:08:00,
2013-04-14 04:10:00,55.4,11.3,30.89,South,186,2.7,2.7,17,0.00,,---,0.00,VWS V14.01,2013-04-14 09:10:00,
2013-04-14 04:12:00,55.4,11.3,30.89,South,190,7.6,7.6,17,0.00,,---,0.00,VWS V14.01,2013-04-14 09:12:00,
2013-04-14 04:13:00,55.4,11.3,30.89,SSW,203,3.1,3.1,17,0.00,,---,0.00,VWS V14.01,2013-04-14 09:13:00,
2013-04-14 04:15:00,55.2,12.5,30.89,SSW,203,3.1,3.1,18,0.00,,---,0.00,VWS V14.01,2013-04-14 09:15:00,
2013-04-14 04:17:00,55.2,12.5,30.92,South,184,4.0,4.0,18,0.00,,---,0.00,VWS V14.01,2013-04-14 09:17:00,
2013-04-14 04:18:00,55.2,12.5,30.92,South,184,4.0,4.0,18,0.00,,---,0.00,VWS V14.01,2013-04-14 09:18:00,
2013-04-14 04:20:00,55.2,12.5,30.92,South,182,3.6,4.0,18,0.00,,---,0.00,VWS V14.01,2013-04-14 09:20:00,
2013-04-14 04:22:00,55.2,12.5,30.92,South,182,3.6,3.6,18,0.00,,---,0.00,VWS V14.01,2013-04-14 09:22:00,
2013-04-14 04:23:00,55.2,12.5,30.92,South,182,3.6,3.6,18,0.00,,---,0.00,VWS V14.01,2013-04-14 09:23:00,
2013-04-14 04:25:00,55.2,12.5,30.92,South,182,3.6,3.6,18,0.00,,---,0.00,VWS V14.01,2013-04-14 09:25:00,
2013-04-14 04:27:00,55.2,12.5,30.92,SW,230,4.0,4.0,18,0.00,,---,0.00,VWS V14.01,2013-04-14 09:27:00,
2013-04-14 04:29:00,55.2,12.5,30.92,SSW,204,2.7,4.0,18,0.00,,---,0.00,VWS V14.01,2013-04-14 09:29:00,
2013-04-14 04:30:00,55.2,12.5,30.92,SSW,204,2.7,2.7,18,0.00,,---,0.00,VWS V14.01,2013-04-14 09:30:00,
2013-04-14 04:32:00,55.0,12.3,30.92,South,184,3.1,4.0,18,0.00,,---,0.00,VWS V14.01,2013-04-14 09:32:00,
2013-04-14 04:34:00,55.0,12.3,30.92,South,184,3.1,3.1,18,0.00,,---,0.00,VWS V14.01,2013-04-14 09:34:00,
2013-04-14 04:35:00,55.0,12.3,30.92,South,184,3.1,3.1,18,0.00,,---,0.00,VWS V14.01,2013-04-14 09:35:00,
2013-04-14 04:37:00,55.0,12.3,30.92,South,184,3.1,3.1,18,0.00,,---,0.00,VWS V14.01,2013-04-14 09:37:00,
2013-04-14 04:38:00,55.0,12.3,30.92,SSW,194,2.7,3.1,18,0.00,,---,0.00,VWS V14.01,2013-04-14 09:38:00,
2013-04-14 04:39:00,55.0,12.3,30.92,South,181,5.4,5.4,18,0.00,,---,0.00,VWS V14.01,2013-04-14 09:39:00,
2013-04-14 04:40:00,55.0,12.3,30.92,SE,141,3.6,3.6,18,0.00,,---,0.00,VWS V14.01,2013-04-14 09:40:00,
2013-04-14 04:42:00,55.0,12.3,30.92,WSW,237,4.0,4.0,18,0.00,,---,0.00,VWS V14.01,2013-04-14 09:42:00,
2013-04-14 04:43:00,55.0,12.3,30.92,WSW,237,4.0,4.0,18,0.00,,---,0.00,VWS V14.01,2013-04-14 09:43:00,
2013-04-14 04:44:00,55.0,12.3,30.92,SE,136,6.3,6.3,18,0.00,,---,0.00,VWS V14.01,2013-04-14 09:44:00,
2013-04-14 04:45:00,55.0,12.3,30.92,South,182,4.0,4.0,18,0.00,,---,0.00,VWS V14.01,2013-04-14 09:45:00,
2013-04-14 04:47:00,55.0,12.3,30.95,SSW,203,3.1,3.1,18,0.00,,---,0.00,VWS V14.01,2013-04-14 09:47:00,
2013-04-14 04:48:00,55.0,12.3,30.95,SSW,203,3.1,3.1,18,0.00,,---,0.00,VWS V14.01,2013-04-14 09:48:00,
2013-04-14 04:49:00,55.0,12.3,30.95,SSW,203,3.1,3.1,18,0.00,,---,0.00,VWS V14.01,2013-04-14 09:49:00,
2013-04-14 04:50:00,55.0,12.3,30.95,SSW,203,3.1,3.1,18,0.00,,---,0.00,VWS V14.01,2013-04-14 09:50:00,
2013-04-14 04:52:00,55.0,12.3,30.95,SSW,210,4.0,4.0,18,0.00,,---,0.00,VWS V14.01,2013-04-14 09:52:00,
2013-04-14 04:53:00,55.0,12.3,30.95,SSE,147,2.7,4.0,18,0.00,,---,0.00,VWS V14.01,2013-04-14 09:53:00,
2013-04-14 04:54:00,54.9,12.2,30.95,SSE,147,2.7,2.7,18,0.00,,---,0.00,VWS V14.01,2013-04-14 09:54:00,
2013-04-14 04:55:00,54.9,12.2,30.95,SSE,147,2.7,2.7,18,0.00,,---,0.00,VWS V14.01,2013-04-14 09:55:00,
2013-04-14 04:57:00,54.9,12.2,30.95,SSW,192,4.9,4.9,18,0.00,,---,0.00,VWS V14.01,2013-04-14 09:57:00,
2013-04-14 04:58:00,54.9,12.2,30.95,SSW,192,4.9,4.9,18,0.00,,---,0.00,VWS V14.01,2013-04-14 09:58:00,
2013-04-14 05:00:00,54.9,12.2,30.95,SSW,192,4.9,4.9,18,0.00,,---,0.00,VWS V14.01,2013-04-14 10:00:00,
2013-04-14 05:03:00,54.9,12.2,30.95,South,191,2.7,2.7,18,0.00,,---,0.00,VWS V14.01,2013-04-14 10:03:00,
2013-04-14 05:05:00,54.9,12.2,30.95,SSW,203,3.1,3.1,18,0.00,,---,0.00,VWS V14.01,2013-04-14 10:05:00,
2013-04-14 05:08:00,54.9,12.2,30.98,SSW,192,2.7,4.9,18,0.00,,---,0.00,VWS V14.01,2013-04-14 10:08:00,
2013-04-14 05:10:00,54.7,12.0,30.98,SSW,192,2.7,2.7,18,0.00,,---,0.00,VWS V14.01,2013-04-14 10:10:00,
2013-04-14 05:13:00,54.7,12.0,30.98,SW,219,4.0,4.0,18,0.00,,---,0.00,VWS V14.01,2013-04-14 10:13:00,
2013-04-14 05:15:00,54.7,12.0,30.98,South,170,4.0,4.0,18,0.00,,---,0.00,VWS V14.01,2013-04-14 10:15:00,
2013-04-14 05:18:00,54.5,11.9,30.98,South,189,5.8,5.8,18,0.00,,---,0.00,VWS V14.01,2013-04-14 10:18:00,
2013-04-14 05:20:00,54.5,11.9,30.98,SSW,200,3.6,5.8,18,0.00,,---,0.00,VWS V14.01,2013-04-14 10:20:00,
2013-04-14 05:23:00,54.5,11.9,30.98,SSW,201,4.9,4.9,18,0.00,,---,0.00,VWS V14.01,2013-04-14 10:23:00,
2013-04-14 05:25:00,54.5,11.9,30.98,South,179,2.7,2.7,18,0.00,,---,0.00,VWS V14.01,2013-04-14 10:25:00,
2013-04-14 05:28:00,54.5,11.9,30.98,SSE,167,4.9,4.9,18,0.00,,---,0.00,VWS V14.01,2013-04-14 10:28:00,
2013-04-14 05:30:00,54.3,11.7,30.98,SSE,167,4.9,4.9,18,0.00,,---,0.00,VWS V14.01,2013-04-14 10:30:00,
2013-04-14 05:31:00,54.3,11.7,30.98,SSE,167,4.9,4.9,18,0.00,,---,0.00,VWS V14.01,2013-04-14 10:31:00,
2013-04-14 05:33:00,54.3,11.7,30.98,South,183,3.1,3.1,18,0.00,,---,0.00,VWS V14.01,2013-04-14 10:33:00,
2013-04-14 05:35:00,54.3,11.7,31.01,South,183,3.1,3.1,18,0.00,,---,0.00,VWS V14.01,2013-04-14 10:35:00,
2013-04-14 05:36:00,54.3,11.7,31.01,South,187,5.8,5.8,18,0.00,,---,0.00,VWS V14.01,2013-04-14 10:36:00,
2013-04-14 05:38:00,54.3,11.7,31.01,SSW,209,3.6,3.6,18,0.00,,---,0.00,VWS V14.01,2013-04-14 10:38:00,
2013-04-14 05:39:00,54.3,11.7,31.01,SSW,209,3.6,3.6,18,0.00,,---,0.00,VWS V14.01,2013-04-14 10:39:00,
2013-04-14 05:40:00,54.3,11.7,31.01,SSW,209,3.6,3.6,18,0.00,,---,0.00,VWS V14.01,2013-04-14 10:40:00,
2013-04-14 05:42:00,54.1,11.6,31.01,SSW,209,3.6,3.6,18,0.00,,---,0.00,VWS V14.01,2013-04-14 10:42:00,
2013-04-14 05:44:00,54.1,11.6,31.01,SSW,206,2.2,2.2,18,0.00,,---,0.00,VWS V14.01,2013-04-14 10:44:00,
2013-04-14 05:45:00,54.1,11.6,31.01,SSW,206,2.2,2.2,18,0.00,,---,0.00,VWS V14.01,2013-04-14 10:45:00,
2013-04-14 05:47:00,54.0,11.4,31.01,South,182,3.1,3.1,18,0.00,,---,0.00,VWS V14.01,2013-04-14 10:47:00,
2013-04-14 05:49:00,54.0,11.4,30.98,SW,218,2.2,2.2,18,0.00,,---,0.00,VWS V14.01,2013-04-14 10:49:00,
2013-04-14 05:50:00,54.0,11.4,30.98,SSW,195,3.6,3.6,18,0.00,,---,0.00,VWS V14.01,2013-04-14 10:50:00,
2013-04-14 05:52:00,54.0,11.4,30.98,SSW,212,3.1,3.1,18,0.00,,---,0.00,VWS V14.01,2013-04-14 10:52:00,
2013-04-14 05:54:00,53.8,11.3,30.98,SW,219,3.6,3.6,18,0.00,,---,0.00,VWS V14.01,2013-04-14 10:54:00,
2013-04-14 05:55:00,53.8,11.3,30.98,SSW,196,3.1,3.6,18,0.00,,---,0.00,VWS V14.01,2013-04-14 10:55:00,
2013-04-14 05:57:00,53.8,11.3,30.98,SSW,213,3.6,3.6,18,0.00,,---,0.00,VWS V14.01,2013-04-14 10:57:00,
2013-04-14 05:59:00,53.8,11.3,30.98,SSE,154,4.0,4.0,18,0.00,,---,0.00,VWS V14.01,2013-04-14 10:59:00,
2013-04-14 06:00:00,53.8,11.3,30.98,SSE,154,4.0,4.0,18,0.00,,---,0.00,VWS V14.01,2013-04-14 11:00:00,
2013-04-14 06:02:00,53.8,11.3,30.98,SSE,152,2.7,2.7,18,0.00,,---,0.00,VWS V14.01,2013-04-14 11:02:00,
2013-04-14 06:04:00,53.6,11.1,31.01,SSW,192,2.7,2.7,18,0.00,,---,0.00,VWS V14.01,2013-04-14 11:04:00,
2013-04-14 06:05:00,53.6,11.1,31.01,SSW,192,2.7,2.7,18,0.00,,---,0.00,VWS V14.01,2013-04-14 11:05:00,
2013-04-14 06:07:00,53.6,11.1,31.01,SSW,192,2.7,2.7,18,0.00,,---,0.00,VWS V14.01,2013-04-14 11:07:00,
2013-04-14 06:10:00,53.6,11.1,31.01,SSE,166,3.6,3.6,18,0.00,,---,0.00,VWS V14.01,2013-04-14 11:10:00,
2013-04-14 06:12:00,53.4,11.0,31.01,South,186,3.6,3.6,18,0.00,,---,0.00,VWS V14.01,2013-04-14 11:12:00,
2013-04-14 06:15:00,53.4,11.0,31.01,South,179,3.6,3.6,18,0.00,,---,0.00,VWS V14.01,2013-04-14 11:15:00,
2013-04-14 06:18:00,53.2,10.9,31.01,South,190,4.9,4.9,18,0.00,,---,0.00,VWS V14.01,2013-04-14 11:18:00,
2013-04-14 06:20:00,53.2,10.9,31.01,South,190,4.9,4.9,18,0.00,,---,0.00,VWS V14.01,2013-04-14 11:20:00,
2013-04-14 06:23:00,53.2,10.9,31.01,SW,217,2.7,2.7,18,0.00,,---,0.00,VWS V14.01,2013-04-14 11:23:00,
2013-04-14 06:25:00,53.2,10.9,31.01,South,189,4.0,4.0,18,0.00,,---,0.00,VWS V14.01,2013-04-14 11:25:00,
2013-04-14 06:26:00,53.2,10.9,31.01,SSW,205,2.2,4.0,18,0.00,,---,0.00,VWS V14.01,2013-04-14 11:26:00,
2013-04-14 06:28:00,53.2,10.9,31.01,SSW,194,3.1,4.0,18,0.00,,---,0.00,VWS V14.01,2013-04-14 11:28:00,
2013-04-14 06:30:00,53.2,10.9,31.01,SSE,161,3.1,3.1,18,0.00,,---,0.00,VWS V14.01,2013-04-14 11:30:00,
2013-04-14 06:31:00,53.1,10.7,31.01,SSE,161,3.1,3.1,18,0.00,,---,0.00,VWS V14.01,2013-04-14 11:31:00,
2013-04-14 06:33:00,53.1,10.7,31.01,South,187,3.1,3.1,18,0.00,,---,0.00,VWS V14.01,2013-04-14 11:33:00,
2013-04-14 06:35:00,53.1,10.7,31.01,South,187,3.1,3.1,18,0.00,,---,0.00,VWS V14.01,2013-04-14 11:35:00,
2013-04-14 06:36:00,53.1,10.7,31.01,South,187,3.1,3.1,18,0.00,,---,0.00,VWS V14.01,2013-04-14 11:36:00,
2013-04-14 06:38:00,53.1,10.7,31.01,South,187,3.1,3.1,18,0.00,,---,0.00,VWS V14.01,2013-04-14 11:38:00,
2013-04-14 06:40:00,53.1,10.7,31.01,South,180,3.6,3.6,18,0.00,,---,0.00,VWS V14.01,2013-04-14 11:40:00,
2013-04-14 06:41:00,53.1,10.7,31.01,South,174,2.7,3.6,18,0.00,,---,0.00,VWS V14.01,2013-04-14 11:41:00,
2013-04-14 06:42:00,53.1,10.7,31.01,SSW,213,2.7,2.7,18,0.00,,---,0.00,VWS V14.01,2013-04-14 11:42:00,
2013-04-14 06:43:00,53.1,10.7,31.01,SSW,213,2.7,2.7,18,0.00,,---,0.00,VWS V14.01,2013-04-14 11:43:00,
2013-04-14 06:45:00,53.1,10.7,31.01,South,183,2.7,2.7,18,0.00,,---,0.00,VWS V14.01,2013-04-14 11:45:00,
2013-04-14 06:46:00,53.1,10.7,31.01,South,184,2.7,2.7,18,0.00,,---,0.00,VWS V14.01,2013-04-14 11:46:00,
2013-04-14 06:47:00,53.1,10.7,31.01,South,184,2.7,2.7,18,0.00,,---,0.00,VWS V14.01,2013-04-14 11:47:00,
2013-04-14 06:48:00,53.1,10.7,31.01,SSW,209,3.1,3.1,18,0.00,,---,0.00,VWS V14.01,2013-04-14 11:48:00,
2013-04-14 06:50:00,53.1,10.7,31.01,SSW,209,3.1,3.1,18,0.00,,---,0.00,VWS V14.01,2013-04-14 11:50:00,
2013-04-14 06:51:00,53.1,10.7,31.01,South,188,2.7,3.1,18,0.00,,---,0.00,VWS V14.01,2013-04-14 11:51:00,
2013-04-14 06:52:00,53.1,10.7,31.01,South,171,2.7,3.1,18,0.00,,---,0.00,VWS V14.01,2013-04-14 11:52:00,
2013-04-14 06:53:00,53.1,10.7,31.01,South,171,2.7,2.7,18,0.00,,---,0.00,VWS V14.01,2013-04-14 11:53:00,
2013-04-14 06:55:00,53.1,10.7,31.01,South,170,3.6,3.6,18,0.00,,---,0.00,VWS V14.01,2013-04-14 11:55:00,
2013-04-14 06:56:00,53.1,10.7,31.01,South,170,3.6,3.6,18,0.00,,---,0.00,VWS V14.01,2013-04-14 11:56:00,
2013-04-14 06:57:00,52.9,10.6,31.01,SSW,200,3.1,3.1,18,0.00,,---,0.00,VWS V14.01,2013-04-14 11:57:00,
2013-04-14 06:58:00,52.9,10.6,31.01,SSW,200,3.1,3.1,18,0.00,,---,0.00,VWS V14.01,2013-04-14 11:58:00,
2013-04-14 07:00:00,52.9,10.6,31.01,South,171,2.2,3.1,18,0.00,,---,0.00,VWS V14.01,2013-04-14 12:00:00,
2013-04-14 07:01:00,52.9,10.6,31.01,South,171,0.0,2.2,18,0.00,,---,0.00,VWS V14.01,2013-04-14 12:01:00,
2013-04-14 07:03:00,52.9,10.6,31.01,South,171,0.0,0.0,18,0.00,,---,0.00,VWS V14.01,2013-04-14 12:03:00,
2013-04-14 07:04:00,52.9,10.6,31.01,South,171,0.0,0.0,18,0.00,,---,0.00,VWS V14.01,2013-04-14 12:04:00,
2013-04-14 07:05:00,52.9,10.6,31.01,SSE,152,2.7,3.6,18,0.00,,---,0.00,VWS V14.01,2013-04-14 12:05:00,
2013-04-14 07:07:00,52.9,10.6,31.01,SSE,165,2.2,2.7,18,0.00,,---,0.00,VWS V14.01,2013-04-14 12:07:00,
2013-04-14 07:08:00,52.9,10.6,31.01,South,169,2.7,2.7,18,0.00,,---,0.00,VWS V14.01,2013-04-14 12:08:00,
2013-04-14 07:09:00,52.9,10.6,31.01,South,169,2.7,2.7,18,0.00,,---,0.00,VWS V14.01,2013-04-14 12:09:00,
2013-04-14 07:10:00,52.9,10.6,31.01,SSW,198,0.0,0.0,18,0.00,,---,0.00,VWS V14.01,2013-04-14 12:10:00,
2013-04-14 07:12:00,52.9,10.6,31.01,SSW,198,0.0,0.0,18,0.00,,---,0.00,VWS V14.01,2013-04-14 12:12:00,
2013-04-14 07:13:00,52.9,10.6,31.01,South,185,2.7,2.7,18,0.00,,---,0.00,VWS V14.01,2013-04-14 12:13:00,
2013-04-14 07:14:00,52.9,10.6,31.01,South,185,2.7,2.7,18,0.00,,---,0.00,VWS V14.01,2013-04-14 12:14:00,
2013-04-14 07:16:00,52.9,10.6,31.01,SW,229,2.2,2.2,18,0.00,,---,0.00,VWS V14.01,2013-04-14 12:16:00,
2013-04-14 07:18:00,52.9,10.6,31.01,SSW,206,2.7,2.7,18,0.00,,---,0.00,VWS V14.01,2013-04-14 12:18:00,
2013-04-14 07:19:00,52.9,10.6,31.01,SW,220,4.0,4.0,18,0.00,,---,0.00,VWS V14.01,2013-04-14 12:19:00,
2013-04-14 07:21:00,52.9,10.6,31.01,SE,141,3.1,4.0,18,0.00,,---,0.00,VWS V14.01,2013-04-14 12:21:00,
2013-04-14 07:23:00,52.9,10.6,31.01,South,187,3.1,3.1,18,0.00,,---,0.00,VWS V14.01,2013-04-14 12:23:00,
2013-04-14 07:24:00,52.9,10.6,31.01,South,187,3.1,3.1,18,0.00,,---,0.00,VWS V14.01,2013-04-14 12:24:00,
2013-04-14 07:26:00,53.1,10.7,31.01,South,187,3.1,3.1,18,0.00,,---,0.00,VWS V14.01,2013-04-14 12:26:00,
2013-04-14 07:28:00,53.1,10.7,31.01,SSE,166,3.1,3.1,18,0.00,,---,0.00,VWS V14.01,2013-04-14 12:28:00,
2013-04-14 07:29:00,53.1,10.7,31.01,SSE,166,3.1,3.1,18,0.00,,---,0.00,VWS V14.01,2013-04-14 12:29:00,
2013-04-14 07:32:00,53.1,10.7,31.01,South,173,0.0,3.1,18,0.00,,---,0.00,VWS V14.01,2013-04-14 12:32:00,
2013-04-14 07:33:00,53.1,10.7,31.01,South,190,2.7,2.7,18,0.00,,---,0.00,VWS V14.01,2013-04-14 12:33:00,
2013-04-14 07:34:00,53.1,10.7,31.01,SSE,153,0.0,0.0,18,0.00,,---,0.00,VWS V14.01,2013-04-14 12:34:00,
2013-04-14 07:37:00,53.1,10.7,31.01,SW,224,2.2,2.2,18,0.00,,---,0.00,VWS V14.01,2013-04-14 12:37:00,
2013-04-14 07:39:00,53.2,10.9,31.01,South,187,0.0,2.2,18,0.00,,---,0.00,VWS V14.01,2013-04-14 12:39:00,
2013-04-14 07:42:00,53.2,10.9,31.01,SSE,154,4.9,4.9,18,0.00,,---,0.00,VWS V14.01,2013-04-14 12:42:00,
2013-04-14 07:44:00,53.4,11.0,31.01,SSE,154,4.9,4.9,18,0.00,,---,0.00,VWS V14.01,2013-04-14 12:44:00,
2013-04-14 07:47:00,53.4,11.0,31.01,SSE,164,4.0,4.0,18,0.00,,---,0.00,VWS V14.01,2013-04-14 12:47:00,
2013-04-14 07:49:00,53.4,11.0,31.01,WNW,293,4.0,4.0,18,0.00,,---,0.00,VWS V14.01,2013-04-14 12:49:00,
2013-04-14 07:52:00,53.8,11.3,30.98,South,176,3.6,3.6,18,0.00,,---,0.00,VWS V14.01,2013-04-14 12:52:00,
2013-04-14 07:54:00,53.8,11.3,30.98,South,176,3.6,3.6,18,0.00,,---,0.00,VWS V14.01,2013-04-14 12:54:00,
2013-04-14 07:57:00,53.8,11.3,30.98,ESE,118,3.1,3.1,18,0.00,,---,0.00,VWS V14.01,2013-04-14 12:57:00,
2013-04-14 07:59:00,53.8,11.3,30.98,SSW,213,3.1,3.1,18,0.00,,---,0.00,VWS V14.01,2013-04-14 12:59:00,
2013-04-14 08:03:00,54.3,11.7,30.98,SE,138,5.8,5.8,18,0.00,,---,0.00,VWS V14.01,2013-04-14 13:03:00,
2013-04-14 08:04:00,54.5,11.9,30.98,SSE,152,4.0,4.0,18,0.00,,---,0.00,VWS V14.01,2013-04-14 13:04:00,
2013-04-14 08:05:00,54.5,11.9,30.98,SSW,202,3.6,4.0,18,0.00,,---,0.00,VWS V14.01,2013-04-14 13:05:00,
2013-04-14 08:08:00,54.5,11.9,30.98,South,171,4.5,4.5,18,0.00,,---,0.00,VWS V14.01,2013-04-14 13:08:00,
2013-04-14 08:09:00,54.5,11.9,30.98,South,171,4.5,4.5,18,0.00,,---,0.00,VWS V14.01,2013-04-14 13:09:00,
2013-04-14 08:10:00,54.5,11.9,30.98,SSE,166,2.7,4.5,18,0.00,,---,0.00,VWS V14.01,2013-04-14 13:10:00,
2013-04-14 08:13:00,54.9,12.2,30.98,SE,142,3.6,3.6,18,0.00,,---,0.00,VWS V14.01,2013-04-14 13:13:00,
2013-04-14 08:14:00,54.9,12.2,30.98,SSW,192,8.3,8.3,18,0.00,,---,0.00,VWS V14.01,2013-04-14 13:14:00,
2013-04-14 08:15:00,54.9,12.2,30.98,SSW,192,8.3,8.3,18,0.00,,---,0.00,VWS V14.01,2013-04-14 13:15:00,
2013-04-14 08:18:00,55.2,12.5,30.98,SSW,195,2.7,2.7,18,0.00,,---,0.00,VWS V14.01,2013-04-14 13:18:00,
2013-04-14 08:19:00,55.2,12.5,30.98,SSW,195,2.7,2.7,18,0.00,,---,0.00,VWS V14.01,2013-04-14 13:19:00,
2013-04-14 08:20:00,55.4,11.3,30.98,SSW,195,2.7,2.7,17,0.00,,---,0.00,VWS V14.01,2013-04-14 13:20:00,
2013-04-14 08:23:00,55.4,11.3,30.98,South,173,5.4,5.4,17,0.00,,---,0.00,VWS V14.01,2013-04-14 13:23:00,
2013-04-14 08:24:00,55.8,11.6,30.98,South,173,3.6,8.7,17,0.00,,---,0.00,VWS V14.01,2013-04-14 13:24:00,
2013-04-14 08:25:00,55.8,11.6,30.98,SSW,195,4.9,4.9,17,0.00,,---,0.00,VWS V14.01,2013-04-14 13:25:00,
2013-04-14 08:28:00,55.8,11.6,30.98,South,172,2.7,2.7,17,0.00,,---,0.00,VWS V14.01,2013-04-14 13:28:00,
2013-04-14 08:29:00,56.3,12.1,30.98,South,172,2.7,2.7,17,0.00,,---,0.00,VWS V14.01,2013-04-14 13:29:00,
2013-04-14 08:30:00,56.3,12.1,30.98,SSW,205,6.3,6.3,17,0.00,,---,0.00,VWS V14.01,2013-04-14 13:30:00,
2013-04-14 08:33:00,56.3,12.1,30.98,SW,215,3.6,3.6,17,0.00,,---,0.00,VWS V14.01,2013-04-14 13:33:00,
2013-04-14 08:34:00,56.3,12.1,30.98,South,180,3.6,3.6,17,0.00,,---,0.00,VWS V14.01,2013-04-14 13:34:00,
2013-04-14 08:35:00,56.3,12.1,30.98,SE,127,7.6,7.6,17,0.00,,---,0.00,VWS V14.01,2013-04-14 13:35:00,
2013-04-14 08:38:00,57.0,12.7,30.98,South,185,6.7,6.7,17,0.00,,---,0.00,VWS V14.01,2013-04-14 13:38:00,
2013-04-14 08:39:00,57.0,12.7,30.98,South,185,6.7,6.7,17,0.00,,---,0.00,VWS V14.01,2013-04-14 13:39:00,
2013-04-14 08:40:00,57.2,12.8,30.98,SW,217,5.4,6.7,17,0.00,,---,0.00,VWS V14.01,2013-04-14 13:40:00,
2013-04-14 08:41:00,57.2,12.8,30.98,SW,217,5.4,6.7,17,0.00,,---,0.00,VWS V14.01,2013-04-14 13:41:00,
2013-04-14 08:44:00,57.4,12.9,30.98,ESE,113,5.4,5.4,17,0.00,,---,0.00,VWS V14.01,2013-04-14 13:44:00,
2013-04-14 08:45:00,57.4,12.9,30.98,SW,226,5.4,5.4,17,0.00,,---,0.00,VWS V14.01,2013-04-14 13:45:00,
2013-04-14 08:46:00,57.4,12.9,30.98,SW,226,5.4,5.4,17,0.00,,---,0.00,VWS V14.01,2013-04-14 13:46:00,
2013-04-14 08:49:00,57.7,13.2,30.98,SE,137,5.4,5.4,17,0.00,,---,0.00,VWS V14.01,2013-04-14 13:49:00,
2013-04-14 08:51:00,57.9,13.4,30.98,SSE,167,3.1,3.1,17,0.00,,---,0.00,VWS V14.01,2013-04-14 13:51:00,
2013-04-14 08:54:00,58.1,13.5,30.98,South,172,5.8,5.8,17,0.00,,---,0.00,VWS V14.01,2013-04-14 13:54:00,
2013-04-14 08:56:00,58.3,13.7,30.98,SW,220,4.0,4.0,17,0.00,,---,0.00,VWS V14.01,2013-04-14 13:56:00,
2013-04-14 08:59:00,58.3,13.7,30.98,South,179,8.3,8.3,17,0.00,,---,0.00,VWS V14.01,2013-04-14 13:59:00,
2013-04-14 09:01:00,58.3,13.7,30.98,SSW,201,8.1,8.3,17,0.00,,---,0.00,VWS V14.01,2013-04-14 14:01:00,
2013-04-14 09:04:00,58.3,13.7,30.98,SSW,201,8.1,8.1,17,0.00,,---,0.00,VWS V14.01,2013-04-14 14:04:00,
2013-04-14 09:06:00,58.8,14.1,30.98,SE,134,3.1,8.1,17,0.00,,---,0.00,VWS V14.01,2013-04-14 14:06:00,
2013-04-14 09:09:00,59.0,14.3,31.01,SSW,193,2.7,5.8,17,0.00,,---,0.00,VWS V14.01,2013-04-14 14:09:00,
2013-04-14 09:11:00,59.0,14.3,31.01,SSE,150,9.2,9.2,17,0.00,,---,0.00,VWS V14.01,2013-04-14 14:11:00,
2013-04-14 09:14:00,59.4,14.6,31.01,South,177,5.8,5.8,17,0.00,,---,0.00,VWS V14.01,2013-04-14 14:14:00,
2013-04-14 09:15:00,59.4,14.6,31.01,South,177,5.8,5.8,17,0.00,,---,0.00,VWS V14.01,2013-04-14 14:15:00,
2013-04-14 09:16:00,59.4,14.6,31.01,South,177,5.8,5.8,17,0.00,,---,0.00,VWS V14.01,2013-04-14 14:16:00,
2013-04-14 09:17:00,59.4,14.6,31.01,SSE,165,8.3,8.3,17,0.00,,---,0.00,VWS V14.01,2013-04-14 14:17:00,
2013-04-14 09:20:00,59.4,14.6,31.01,South,187,11.0,11.0,17,0.00,,---,0.00,VWS V14.01,2013-04-14 14:20:00,
2013-04-14 09:21:00,59.5,14.7,31.01,SW,224,4.0,4.0,17,0.00,,---,0.00,VWS V14.01,2013-04-14 14:21:00,
2013-04-14 09:22:00,59.5,14.7,31.01,SW,224,4.0,4.0,17,0.00,,---,0.00,VWS V14.01,2013-04-14 14:22:00,
2013-04-14 09:25:00,59.7,14.9,31.01,SE,145,4.0,4.0,17,0.00,,---,0.00,VWS V14.01,2013-04-14 14:25:00,
2013-04-14 09:27:00,59.7,14.9,31.01,SSE,162,3.6,5.8,17,0.00,,---,0.00,VWS V14.01,2013-04-14 14:27:00,
2013-04-14 09:30:00,60.4,15.4,31.01,SSE,161,6.3,6.3,17,0.00,,---,0.00,VWS V14.01,2013-04-14 14:30:00,
2013-04-14 09:32:00,60.4,15.4,30.98,SW,230,4.9,4.9,17,0.00,,---,0.00,VWS V14.01,2013-04-14 14:32:00,
2013-04-14 09:33:00,60.6,15.6,30.98,SW,230,4.9,4.9,17,0.00,,---,0.00,VWS V14.01,2013-04-14 14:33:00,
2013-04-14 09:35:00,61.0,14.5,30.98,South,191,4.0,4.0,16,0.00,,---,0.00,VWS V14.01,2013-04-14 14:35:00,
2013-04-14 09:37:00,61.0,14.5,30.98,SSE,167,5.4,5.4,16,0.00,,---,0.00,VWS V14.01,2013-04-14 14:37:00,
2013-04-14 09:38:00,61.0,14.5,30.98,SSE,167,5.4,5.4,16,0.00,,---,0.00,VWS V14.01,2013-04-14 14:38:00,
2013-04-14 09:40:00,61.0,14.5,30.98,SSW,201,9.6,9.6,16,0.00,,---,0.00,VWS V14.01,2013-04-14 14:40:00,
2013-04-14 09:42:00,62.1,15.4,30.98,SW,224,3.1,3.1,16,0.00,,---,0.00,VWS V14.01,2013-04-14 14:42:00,
2013-04-14 09:43:00,62.1,15.4,30.98,SW,224,3.1,3.1,16,0.00,,---,0.00,VWS V14.01,2013-04-14 14:43:00,
2013-04-14 09:45:00,62.1,15.4,30.98,SSW,199,5.4,5.4,16,0.00,,---,0.00,VWS V14.01,2013-04-14 14:45:00,
2013-04-14 09:47:00,62.1,15.4,30.98,ESE,117,3.1,3.1,16,0.00,,---,0.00,VWS V14.01,2013-04-14 14:47:00,
2013-04-14 09:48:00,62.1,15.4,30.98,ESE,117,3.1,3.1,16,0.00,,---,0.00,VWS V14.01,2013-04-14 14:48:00,
2013-04-14 09:50:00,62.1,15.4,30.98,SSW,211,3.1,3.1,16,0.00,,---,0.00,VWS V14.01,2013-04-14 14:50:00,
2013-04-14 09:51:00,63.5,16.5,30.98,SSW,211,3.1,3.1,16,0.00,,---,0.00,VWS V14.01,2013-04-14 14:51:00,
2013-04-14 09:53:00,63.7,16.7,30.98,SSW,211,3.1,3.1,16,0.00,,---,0.00,VWS V14.01,2013-04-14 14:53:00,
2013-04-14 09:55:00,64.2,17.1,30.98,SW,223,4.0,4.0,16,0.00,,---,0.00,VWS V14.01,2013-04-14 14:55:00,
2013-04-14 09:56:00,64.2,17.1,30.98,SW,223,4.0,4.0,16,0.00,,---,0.00,VWS V14.01,2013-04-14 14:56:00,
2013-04-14 09:58:00,64.2,17.1,30.98,SW,223,4.0,4.0,16,0.00,,---,0.00,VWS V14.01,2013-04-14 14:58:00,
2013-04-14 10:00:00,64.8,16.1,30.98,South,178,10.1,10.1,15,0.00,,---,0.00,VWS V14.01,2013-04-14 15:00:00,
2013-04-14 10:01:00,64.8,16.1,30.98,South,178,10.1,10.1,15,0.00,,---,0.00,VWS V14.01,2013-04-14 15:01:00,
2013-04-14 10:03:00,64.8,16.1,30.98,South,183,4.0,4.0,15,0.00,,---,0.00,VWS V14.01,2013-04-14 15:03:00,
2013-04-14 10:05:00,64.8,16.1,31.01,South,183,4.0,4.0,15,0.00,,---,0.00,VWS V14.01,2013-04-14 15:05:00,
2013-04-14 10:06:00,64.8,16.1,31.01,South,183,4.0,4.0,15,0.00,,---,0.00,VWS V14.01,2013-04-14 15:06:00,
2013-04-14 10:08:00,64.8,16.1,31.01,South,186,4.9,4.9,15,0.00,,---,0.00,VWS V14.01,2013-04-14 15:08:00,
2013-04-14 10:10:00,65.7,16.8,31.01,South,186,4.9,4.9,15,0.00,,---,0.00,VWS V14.01,2013-04-14 15:10:00,
2013-04-14 10:11:00,65.7,16.8,31.01,South,186,4.9,4.9,15,0.00,,---,0.00,VWS V14.01,2013-04-14 15:11:00,
2013-04-14 10:13:00,65.7,16.8,31.01,SSE,163,13.2,13.2,15,0.00,,---,0.00,VWS V14.01,2013-04-14 15:13:00,
2013-04-14 10:16:00,65.7,16.8,31.01,SE,128,8.7,8.7,15,0.00,,---,0.00,VWS V14.01,2013-04-14 15:16:00,
2013-04-14 10:18:00,66.9,17.8,31.01,SW,226,15.4,15.4,15,0.00,,---,0.00,VWS V14.01,2013-04-14 15:18:00,
2013-04-14 10:21:00,67.1,17.9,30.98,SSW,199,6.7,15.4,15,0.00,,---,0.00,VWS V14.01,2013-04-14 15:21:00,
2013-04-14 10:22:00,67.3,18.1,30.98,SSW,199,6.7,6.7,15,0.00,,---,0.00,VWS V14.01,2013-04-14 15:22:00,
2013-04-14 10:23:00,67.3,18.1,30.98,SSW,199,6.7,6.7,15,0.00,,---,0.00,VWS V14.01,2013-04-14 15:23:00,
2013-04-14 10:26:00,67.6,18.4,30.98,SSW,199,6.7,6.7,15,0.00,,---,0.00,VWS V14.01,2013-04-14 15:26:00,
2013-04-14 10:27:00,67.8,18.5,30.98,SE,142,8.3,8.3,15,0.00,,---,0.00,VWS V14.01,2013-04-14 15:27:00,
2013-04-14 10:28:00,67.8,18.5,30.98,SE,142,8.3,8.3,15,0.00,,---,0.00,VWS V14.01,2013-04-14 15:28:00,
2013-04-14 10:32:00,67.8,18.5,30.98,SSW,202,10.1,10.1,15,0.00,,---,0.00,VWS V14.01,2013-04-14 15:32:00,
2013-04-14 10:33:00,67.8,18.5,30.98,SSW,202,10.1,10.1,15,0.00,,---,0.00,VWS V14.01,2013-04-14 15:33:00,
2013-04-14 10:37:00,68.5,22.0,30.98,West,270,6.3,6.3,17,0.00,,---,0.00,VWS V14.01,2013-04-14 15:37:00,
2013-04-14 10:38:00,68.5,22.0,30.98,WSW,248,10.1,10.1,17,0.00,,---,0.00,VWS V14.01,2013-04-14 15:38:00,
2013-04-14 10:39:00,68.5,22.0,30.98,WSW,248,10.1,10.1,17,0.00,,---,0.00,VWS V14.01,2013-04-14 15:39:00,
2013-04-14 10:42:00,68.5,22.0,30.98,WSW,251,5.4,5.4,17,0.00,,---,0.00,VWS V14.01,2013-04-14 15:42:00,
2013-04-14 10:43:00,68.5,22.0,30.98,SW,230,5.8,5.8,17,0.00,,---,0.00,VWS V14.01,2013-04-14 15:43:00,
2013-04-14 10:44:00,69.4,22.8,30.98,SW,230,5.8,5.8,17,0.00,,---,0.00,VWS V14.01,2013-04-14 15:44:00,
2013-04-14 10:47:00,69.6,22.9,30.98,WSW,244,4.0,6.3,17,0.00,,---,0.00,VWS V14.01,2013-04-14 15:47:00,
2013-04-14 10:49:00,69.6,22.9,30.98,SSW,211,5.8,5.8,17,0.00,,---,0.00,VWS V14.01,2013-04-14 15:49:00,
2013-04-14 10:52:00,69.6,22.9,30.98,NE,47,10.1,10.1,17,0.00,,---,0.00,VWS V14.01,2013-04-14 15:52:00,
2013-04-14 10:53:00,69.6,22.9,30.98,NE,47,10.1,10.1,17,0.00,,---,0.00,VWS V14.01,2013-04-14 15:53:00,
2013-04-14 10:54:00,69.6,22.9,30.98,SSW,206,6.3,6.3,17,0.00,,---,0.00,VWS V14.01,2013-04-14 15:54:00,
2013-04-14 10:57:00,70.5,23.6,30.98,South,171,6.3,6.3,17,0.00,,---,0.00,VWS V14.01,2013-04-14 15:57:00,
2013-04-14 10:58:00,70.5,23.6,30.98,South,171,6.3,6.3,17,0.00,,---,0.00,VWS V14.01,2013-04-14 15:58:00,
2013-04-14 10:59:00,70.5,23.6,30.98,South,171,6.3,6.3,17,0.00,,---,0.00,VWS V14.01,2013-04-14 15:59:00,
2013-04-14 11:02:00,70.5,23.6,30.98,South,170,6.3,6.3,17,0.00,,---,0.00,VWS V14.01,2013-04-14 16:02:00,
2013-04-14 11:03:00,70.9,23.9,30.98,South,170,6.3,6.3,17,0.00,,---,0.00,VWS V14.01,2013-04-14 16:03:00,
2013-04-14 11:04:00,70.9,23.9,30.98,South,170,6.3,6.3,17,0.00,,---,0.00,VWS V14.01,2013-04-14 16:04:00,
2013-04-14 11:07:00,70.9,23.9,30.98,South,176,5.4,5.4,17,0.00,,---,0.00,VWS V14.01,2013-04-14 16:07:00,
2013-04-14 11:08:00,70.9,23.9,30.95,South,176,5.4,5.4,17,0.00,,---,0.00,VWS V14.01,2013-04-14 16:08:00,
2013-04-14 11:09:00,71.6,23.1,30.95,SSW,198,5.8,8.7,16,0.00,,---,0.00,VWS V14.01,2013-04-14 16:09:00,
2013-04-14 11:10:00,71.6,23.1,30.95,SSW,198,5.8,8.7,16,0.00,,---,0.00,VWS V14.01,2013-04-14 16:10:00,
2013-04-14 11:13:00,72.1,23.5,30.95,SSW,198,5.8,5.8,16,0.00,,---,0.00,VWS V14.01,2013-04-14 16:13:00,
2013-04-14 11:15:00,72.1,23.5,30.95,SE,139,8.1,8.1,16,0.00,,---,0.00,VWS V14.01,2013-04-14 16:15:00,
2013-04-14 11:18:00,72.1,23.5,30.95,SW,229,5.4,5.4,16,0.00,,---,0.00,VWS V14.01,2013-04-14 16:18:00,
2013-04-14 11:19:00,72.1,23.5,30.95,SW,229,5.4,5.4,16,0.00,,---,0.00,VWS V14.01,2013-04-14 16:19:00,
2013-04-14 11:20:00,72.1,23.5,30.95,SSW,203,5.4,5.4,16,0.00,,---,0.00,VWS V14.01,2013-04-14 16:20:00,
2013-04-14 11:23:00,72.7,23.9,30.95,SSW,203,6.7,8.1,16,0.00,,---,0.00,VWS V14.01,2013-04-14 16:23:00,
2013-04-14 11:24:00,72.7,23.9,30.95,SSW,203,6.7,6.7,16,0.00,,---,0.00,VWS V14.01,2013-04-14 16:24:00,
2013-04-14 11:25:00,72.7,23.9,30.95,SSW,204,6.3,6.3,16,0.00,,---,0.00,VWS V14.01,2013-04-14 16:25:00,
2013-04-14 11:28:00,72.7,23.9,30.95,SW,224,6.3,6.3,16,0.00,,---,0.00,VWS V14.01,2013-04-14 16:28:00,
2013-04-14 11:29:00,72.7,23.9,30.95,SW,224,6.3,6.3,16,0.00,,---,0.00,VWS V14.01,2013-04-14 16:29:00,
2013-04-14 11:30:00,72.7,23.9,30.95,SW,224,6.3,6.3,16,0.00,,---,0.00,VWS V14.01,2013-04-14 16:30:00,
2013-04-14 11:33:00,72.5,23.8,30.95,SW,224,6.3,6.3,16,0.00,,---,0.00,VWS V14.01,2013-04-14 16:33:00,
2013-04-14 11:34:00,72.7,23.9,30.95,SW,214,9.2,9.2,16,0.00,,---,0.00,VWS V14.01,2013-04-14 16:34:00,
2013-04-14 11:35:00,72.7,23.9,31.01,SW,214,9.2,9.2,16,0.00,,---,0.00,VWS V14.01,2013-04-14 16:35:00,
2013-04-14 11:38:00,72.7,23.9,31.01,SSW,192,5.8,5.8,16,0.00,,---,0.00,VWS V14.01,2013-04-14 16:38:00,
2013-04-14 11:39:00,72.7,23.9,31.01,SSW,192,5.8,5.8,16,0.00,,---,0.00,VWS V14.01,2013-04-14 16:39:00,
2013-04-14 11:40:00,72.7,23.9,31.01,SSW,192,5.8,5.8,16,0.00,,---,0.00,VWS V14.01,2013-04-14 16:40:00,
2013-04-14 11:43:00,72.7,23.9,31.01,SE,136,9.6,9.6,16,0.00,,---,0.00,VWS V14.01,2013-04-14 16:43:00,
2013-04-14 11:44:00,72.7,23.9,31.01,South,179,5.4,9.6,16,0.00,,---,0.00,VWS V14.01,2013-04-14 16:44:00,
2013-04-14 11:45:00,72.7,23.9,31.01,South,179,5.4,5.4,16,0.00,,---,0.00,VWS V14.01,2013-04-14 16:45:00,
2013-04-14 11:46:00,72.5,23.8,31.01,South,179,5.4,5.4,16,0.00,,---,0.00,VWS V14.01,2013-04-14 16:46:00,
2013-04-14 11:48:00,72.5,23.8,31.01,SE,129,5.4,5.4,16,0.00,,---,0.00,VWS V14.01,2013-04-14 16:48:00,
2013-04-14 11:50:00,72.7,23.9,31.01,South,171,8.3,8.3,16,0.00,,---,0.00,VWS V14.01,2013-04-14 16:50:00,
2013-04-14 11:52:00,72.7,23.9,30.92,WSW,248,8.1,8.3,16,0.00,,---,0.00,VWS V14.01,2013-04-14 16:52:00,
2013-04-14 11:53:00,72.7,23.9,30.92,SSE,168,3.1,3.1,16,0.00,,---,0.00,VWS V14.01,2013-04-14 16:53:00,
2013-04-14 11:55:00,73.2,24.4,30.92,South,180,7.6,7.6,16,0.00,,---,0.00,VWS V14.01,2013-04-14 16:55:00,
2013-04-14 11:57:00,73.2,24.4,30.92,East,83,15.0,15.0,16,0.00,,---,0.00,VWS V14.01,2013-04-14 16:57:00,
2013-04-14 11:58:00,73.2,24.4,30.92,SE,127,3.6,3.6,16,0.00,,---,0.00,VWS V14.01,2013-04-14 16:58:00,
2013-04-14 12:00:00,73.2,24.4,30.92,SE,127,3.6,3.6,16,0.00,,---,0.00,VWS V14.01,2013-04-14 17:00:00,
2013-04-14 12:02:00,73.2,24.4,30.92,SSW,209,8.1,8.1,16,0.00,,---,0.00,VWS V14.01,2013-04-14 17:02:00,
2013-04-14 12:03:00,73.2,24.4,30.92,SSE,148,5.4,5.4,16,0.00,,---,0.00,VWS V14.01,2013-04-14 17:03:00,
2013-04-14 12:05:00,73.4,24.5,30.92,SSE,148,5.4,5.4,16,0.00,,---,0.00,VWS V14.01,2013-04-14 17:05:00,
2013-04-14 12:07:00,73.4,24.5,30.92,SSW,213,8.1,8.1,16,0.00,,---,0.00,VWS V14.01,2013-04-14 17:07:00,
2013-04-14 12:08:00,73.4,24.5,30.92,SSW,213,8.1,8.1,16,0.00,,---,0.00,VWS V14.01,2013-04-14 17:08:00,
2013-04-14 12:10:00,73.4,24.5,30.92,SW,225,6.3,6.3,16,0.00,,---,0.00,VWS V14.01,2013-04-14 17:10:00,
2013-04-14 12:13:00,73.4,24.5,30.92,SW,225,6.3,6.3,16,0.00,,---,0.00,VWS V14.01,2013-04-14 17:13:00,
2013-04-14 12:15:00,73.2,24.4,30.92,NW,311,17.0,17.0,16,0.00,,---,0.00,VWS V14.01,2013-04-14 17:15:00,
2013-04-14 12:18:00,73.2,24.4,30.92,SW,215,13.2,13.2,16,0.00,,---,0.00,VWS V14.01,2013-04-14 17:18:00,
2013-04-14 12:20:00,73.2,24.4,30.83,South,179,12.8,12.8,16,0.00,,---,0.00,VWS V14.01,2013-04-14 17:20:00,
2013-04-14 12:23:00,72.7,23.9,30.83,South,179,12.8,12.8,16,0.00,,---,0.00,VWS V14.01,2013-04-14 17:23:00,
2013-04-14 12:24:00,72.7,23.9,30.83,South,179,12.8,12.8,16,0.00,,---,0.00,VWS V14.01,2013-04-14 17:24:00,
2013-04-14 12:25:00,72.5,23.8,30.83,South,179,12.8,12.8,16,0.00,,---,0.00,VWS V14.01,2013-04-14 17:25:00,
2013-04-14 12:26:00,72.5,23.8,30.83,SW,226,7.6,12.8,16,0.00,,---,0.00,VWS V14.01,2013-04-14 17:26:00,
2013-04-14 12:28:00,72.3,23.6,30.83,South,173,8.3,8.3,16,0.00,,---,0.00,VWS V14.01,2013-04-14 17:28:00,
2013-04-14 12:29:00,72.3,23.6,30.83,South,173,8.3,8.3,16,0.00,,---,0.00,VWS V14.01,2013-04-14 17:29:00,
2013-04-14 12:30:00,72.3,23.6,30.83,South,191,10.5,10.5,16,0.00,,---,0.00,VWS V14.01,2013-04-14 17:30:00,
2013-04-14 12:32:00,72.1,23.5,30.53,South,191,10.5,10.5,16,0.00,,---,0.00,VWS V14.01,2013-04-14 17:32:00,
2013-04-14 12:33:00,72.1,23.5,30.53,South,191,10.5,10.5,16,0.00,,---,0.00,VWS V14.01,2013-04-14 17:33:00,
2013-04-14 12:34:00,72.1,23.5,30.53,SE,142,5.8,5.8,16,0.00,,---,0.00,VWS V14.01,2013-04-14 17:34:00,
2013-04-14 12:35:00,72.1,23.5,30.53,SE,142,5.8,5.8,16,0.00,,---,0.00,VWS V14.01,2013-04-14 17:35:00,
2013-04-14 12:37:00,72.1,23.5,30.53,SE,142,5.8,5.8,16,0.00,,---,0.00,VWS V14.01,2013-04-14 17:37:00,
2013-04-14 12:38:00,72.1,23.5,30.53,South,187,15.0,15.0,16,0.00,,---,0.00,VWS V14.01,2013-04-14 17:38:00,
2013-04-14 12:39:00,72.1,23.5,30.53,South,187,15.0,15.0,16,0.00,,---,0.00,VWS V14.01,2013-04-14 17:39:00,
2013-04-14 12:40:00,72.3,23.6,30.53,South,187,15.0,15.0,16,0.00,,---,0.00,VWS V14.01,2013-04-14 17:40:00,
2013-04-14 12:42:00,72.3,23.6,30.53,South,187,15.0,15.0,16,0.00,,---,0.00,VWS V14.01,2013-04-14 17:42:00,
2013-04-14 12:43:00,72.3,23.6,30.53,SSW,213,10.5,10.5,16,0.00,,---,0.00,VWS V14.01,2013-04-14 17:43:00,
2013-04-14 12:44:00,72.5,23.8,30.53,SSW,213,10.5,10.5,16,0.00,,---,0.00,VWS V14.01,2013-04-14 17:44:00,
2013-04-14 12:45:00,72.5,23.8,30.24,SSW,213,10.5,10.5,16,0.00,,---,0.00,VWS V14.01,2013-04-14 17:45:00,
2013-04-14 12:47:00,73.0,24.2,30.24,SSE,158,8.7,8.7,16,0.00,,---,0.00,VWS V14.01,2013-04-14 17:47:00,
2013-04-14 12:48:00,73.0,24.2,30.24,SSE,158,8.7,8.7,16,0.00,,---,0.00,VWS V14.01,2013-04-14 17:48:00,
2013-04-14 12:49:00,73.2,24.4,30.24,SSE,158,8.7,8.7,16,0.00,,---,0.00,VWS V14.01,2013-04-14 17:49:00,
2013-04-14 12:50:00,73.2,24.4,30.24,SSE,158,8.7,8.7,16,0.00,,---,0.00,VWS V14.01,2013-04-14 17:50:00,
2013-04-14 12:52:00,73.4,24.5,30.24,SSE,158,8.7,8.7,16,0.00,,---,0.00,VWS V14.01,2013-04-14 17:52:00,
2013-04-14 12:53:00,73.4,24.5,30.24,SSE,158,8.7,8.7,16,0.00,,---,0.00,VWS V14.01,2013-04-14 17:53:00,
2013-04-14 12:54:00,73.4,24.5,30.24,SSE,158,8.7,8.7,16,0.00,,---,0.00,VWS V14.01,2013-04-14 17:54:00,
2013-04-14 12:55:00,73.4,24.5,30.24,SE,128,8.3,10.5,16,0.00,,---,0.00,VWS V14.01,2013-04-14 17:55:00,
2013-04-14 12:58:00,73.4,24.5,30.24,SE,128,8.3,8.3,16,0.00,,---,0.00,VWS V14.01,2013-04-14 17:58:00,
2013-04-14 12:59:00,73.4,24.5,30.24,SSE,150,12.8,12.8,16,0.00,,---,0.00,VWS V14.01,2013-04-14 17:59:00,
2013-04-14 13:00:00,73.4,24.5,30.24,South,177,5.8,12.8,16,0.00,,---,0.00,VWS V14.01,2013-04-14 18:00:00,
2013-04-14 13:03:00,73.8,24.8,30.36,SSW,207,4.0,4.0,16,0.00,,---,0.00,VWS V14.01,2013-04-14 18:03:00,
2013-04-14 13:04:00,73.8,24.8,30.36,SSW,207,4.0,4.0,16,0.00,,---,0.00,VWS V14.01,2013-04-14 18:04:00,
2013-04-14 13:05:00,73.8,24.8,30.36,ESE,106,3.6,3.6,16,0.00,,---,0.00,VWS V14.01,2013-04-14 18:05:00,
2013-04-14 13:08:00,73.8,24.8,30.36,ESE,106,3.6,3.6,16,0.00,,---,0.00,VWS V14.01,2013-04-14 18:08:00,
2013-04-14 13:09:00,73.8,24.8,30.36,SSW,193,10.1,10.1,16,0.00,,---,0.00,VWS V14.01,2013-04-14 18:09:00,
2013-04-14 13:11:00,73.8,24.8,30.36,SSW,193,10.1,10.1,16,0.00,,---,0.00,VWS V14.01,2013-04-14 18:11:00,
2013-04-14 13:13:00,73.8,24.8,30.36,SW,226,15.4,15.4,16,0.00,,---,0.00,VWS V14.01,2013-04-14 18:13:00,
2013-04-14 13:14:00,73.8,24.8,30.36,SW,226,15.4,15.4,16,0.00,,---,0.00,VWS V14.01,2013-04-14 18:14:00,
2013-04-14 13:15:00,73.8,24.8,30.36,SW,226,15.4,15.4,16,0.00,,---,0.00,VWS V14.01,2013-04-14 18:15:00,
2013-04-14 13:16:00,73.8,24.8,30.36,SW,226,15.4,15.4,16,0.00,,---,0.00,VWS V14.01,2013-04-14 18:16:00,
2013-04-14 13:18:00,73.8,24.8,30.12,SW,226,15.4,15.4,16,0.00,,---,0.00,VWS V14.01,2013-04-14 18:18:00,
2013-04-14 13:19:00,73.8,24.8,30.12,SW,226,15.4,15.4,16,0.00,,---,0.00,VWS V14.01,2013-04-14 18:19:00,
2013-04-14 13:20:00,73.9,25.0,30.12,SW,226,15.4,15.4,16,0.00,,---,0.00,VWS V14.01,2013-04-14 18:20:00,
2013-04-14 13:21:00,73.9,25.0,30.12,South,182,13.2,13.2,16,0.00,,---,0.00,VWS V14.01,2013-04-14 18:21:00,
2013-04-14 13:23:00,73.9,25.0,30.12,WSW,243,8.3,8.3,16,0.00,,---,0.00,VWS V14.01,2013-04-14 18:23:00,
2013-04-14 13:24:00,73.9,25.0,30.12,WSW,243,8.3,8.3,16,0.00,,---,0.00,VWS V14.01,2013-04-14 18:24:00,
2013-04-14 13:25:00,73.9,25.0,30.12,WSW,243,8.3,8.3,16,0.00,,---,0.00,VWS V14.01,2013-04-14 18:25:00,
2013-04-14 13:27:00,73.8,24.8,30.12,SE,125,10.1,10.1,16,0.00,,---,0.00,VWS V14.01,2013-04-14 18:27:00,
2013-04-14 13:29:00,73.8,24.8,30.12,SE,125,10.1,10.1,16,0.00,,---,0.00,VWS V14.01,2013-04-14 18:29:00,
2013-04-14 13:30:00,73.6,24.7,30.12,SE,125,10.1,10.1,16,0.00,,---,0.00,VWS V14.01,2013-04-14 18:30:00,
2013-04-14 13:32:00,73.6,24.7,30.12,WSW,244,4.0,4.0,16,0.00,,---,0.00,VWS V14.01,2013-04-14 18:32:00,
2013-04-14 13:34:00,73.6,24.7,30.12,South,187,6.3,6.3,16,0.00,,---,0.00,VWS V14.01,2013-04-14 18:34:00,
2013-04-14 13:35:00,73.4,24.5,30.12,South,187,6.3,6.3,16,0.00,,---,0.00,VWS V14.01,2013-04-14 18:35:00,
2013-04-14 13:38:00,73.2,24.4,29.85,SW,225,8.1,8.1,16,0.00,,---,0.00,VWS V14.01,2013-04-14 18:38:00,
2013-04-14 13:39:00,73.2,24.4,29.85,SW,225,8.1,8.1,16,0.00,,---,0.00,VWS V14.01,2013-04-14 18:39:00,
2013-04-14 13:40:00,73.2,24.4,29.85,East,94,7.6,7.6,16,0.00,,---,0.00,VWS V14.01,2013-04-14 18:40:00,
2013-04-14 13:43:00,73.2,24.4,29.85,South,182,8.1,8.1,16,0.00,,---,0.00,VWS V14.01,2013-04-14 18:43:00,
2013-04-14 13:44:00,73.2,24.4,29.85,South,182,8.1,8.1,16,0.00,,---,0.00,VWS V14.01,2013-04-14 18:44:00,
2013-04-14 13:45:00,73.2,24.4,29.85,South,182,8.1,8.1,16,0.00,,---,0.00,VWS V14.01,2013-04-14 18:45:00,
2013-04-14 13:48:00,73.2,24.4,29.85,South,182,8.1,8.1,16,0.00,,---,0.00,VWS V14.01,2013-04-14 18:48:00,
2013-04-14 13:49:00,73.2,24.4,29.85,SSW,208,3.1,3.1,16,0.00,,---,0.00,VWS V14.01,2013-04-14 18:49:00,
2013-04-14 13:50:00,73.2,24.4,29.80,SE,137,10.5,10.5,16,0.00,,---,0.00,VWS V14.01,2013-04-14 18:50:00,
2013-04-14 13:53:00,73.4,24.5,29.80,ENE,78,8.1,10.5,16,0.00,,---,0.00,VWS V14.01,2013-04-14 18:53:00,
2013-04-14 13:54:00,73.4,24.5,29.80,ENE,78,8.1,8.1,16,0.00,,---,0.00,VWS V14.01,2013-04-14 18:54:00,
2013-04-14 13:55:00,73.4,24.5,29.80,ENE,78,8.1,8.1,16,0.00,,---,0.00,VWS V14.01,2013-04-14 18:55:00,
2013-04-14 13:56:00,73.4,24.5,29.80,ENE,78,8.1,8.1,16,0.00,,---,0.00,VWS V14.01,2013-04-14 18:56:00,
2013-04-14 13:58:00,73.4,24.5,29.80,ENE,78,8.1,8.1,16,0.00,,---,0.00,VWS V14.01,2013-04-14 18:58:00,
2013-04-14 13:59:00,73.4,24.5,29.80,SSE,162,7.6,7.6,16,0.00,,---,0.00,VWS V14.01,2013-04-14 18:59:00,
2013-04-14 14:00:00,73.6,24.7,29.80,SSE,162,7.6,7.6,16,0.00,,---,0.00,VWS V14.01,2013-04-14 19:00:00,
2013-04-14 14:01:00,73.6,24.7,29.80,SSE,162,7.6,7.6,16,0.00,,---,0.00,VWS V14.01,2013-04-14 19:01:00,
2013-04-14 14:04:00,73.6,24.7,29.74,SW,221,5.4,5.4,16,0.00,,---,0.00,VWS V14.01,2013-04-14 19:04:00,
2013-04-14 14:06:00,73.6,24.7,29.74,SSW,204,3.1,3.1,16,0.00,,---,0.00,VWS V14.01,2013-04-14 19:06:00,
2013-04-14 14:07:00,73.6,24.7,29.74,SSW,198,8.3,8.3,16,0.00,,---,0.00,VWS V14.01,2013-04-14 19:07:00,
2013-04-14 14:09:00,73.6,24.7,29.74,South,180,8.7,8.7,16,0.00,,---,0.00,VWS V14.01,2013-04-14 19:09:00,
2013-04-14 14:11:00,73.6,24.7,29.74,South,180,8.7,8.7,16,0.00,,---,0.00,VWS V14.01,2013-04-14 19:11:00,
2013-04-14 14:12:00,73.8,24.8,29.74,South,180,8.7,8.7,16,0.00,,---,0.00,VWS V14.01,2013-04-14 19:12:00,
2013-04-14 14:14:00,73.8,24.8,29.74,South,180,8.7,8.7,16,0.00,,---,0.00,VWS V14.01,2013-04-14 19:14:00,
2013-04-14 14:16:00,73.9,25.0,29.74,South,189,4.0,8.7,16,0.00,,---,0.00,VWS V14.01,2013-04-14 19:16:00,
2013-04-14 14:17:00,73.9,25.0,29.74,SSE,164,5.8,5.8,16,0.00,,---,0.00,VWS V14.01,2013-04-14 19:17:00,
2013-04-14 14:19:00,73.9,25.0,29.74,SSE,164,5.8,5.8,16,0.00,,---,0.00,VWS V14.01,2013-04-14 19:19:00,
2013-04-14 14:20:00,73.9,25.0,29.74,SSW,194,5.8,5.8,16,0.00,,---,0.00,VWS V14.01,2013-04-14 19:20:00,
2013-04-14 14:21:00,74.3,25.2,29.74,SSW,194,5.8,5.8,16,0.00,,---,0.00,VWS V14.01,2013-04-14 19:21:00,
2013-04-14 14:22:00,74.3,25.2,29.74,SSW,194,5.8,5.8,16,0.00,,---,0.00,VWS V14.01,2013-04-14 19:22:00,
2013-04-14 14:24:00,74.7,25.5,29.74,SSW,194,5.8,5.8,16,0.00,,---,0.00,VWS V14.01,2013-04-14 19:24:00,
2013-04-14 14:25:00,74.7,25.5,29.74,SSW,194,5.8,5.8,16,0.00,,---,0.00,VWS V14.01,2013-04-14 19:25:00,
2013-04-14 14:26:00,74.7,25.5,29.74,SSW,204,13.2,13.2,16,0.00,,---,0.00,VWS V14.01,2013-04-14 19:26:00,
2013-04-14 14:27:00,75.0,25.8,29.74,SSW,204,13.2,13.2,16,0.00,,---,0.00,VWS V14.01,2013-04-14 19:27:00,
2013-04-14 14:29:00,75.0,25.8,29.74,SSW,195,8.3,13.2,16,0.00,,---,0.00,VWS V14.01,2013-04-14 19:29:00,
2013-04-14 14:30:00,75.2,24.4,29.74,SSW,195,8.3,8.3,15,0.00,,---,0.00,VWS V14.01,2013-04-14 19:30:00,
2013-04-14 14:31:00,75.2,24.4,29.62,SSW,195,8.3,8.3,15,0.00,,---,0.00,VWS V14.01,2013-04-14 19:31:00,
2013-04-14 14:33:00,75.4,24.6,29.62,SSW,195,8.3,8.3,15,0.00,,---,0.00,VWS V14.01,2013-04-14 19:33:00,
2013-04-14 14:34:00,75.4,24.6,29.62,SE,144,10.1,10.1,15,0.00,,---,0.00,VWS V14.01,2013-04-14 19:34:00,
2013-04-14 14:35:00,75.4,24.6,29.62,SE,144,10.1,10.1,15,0.00,,---,0.00,VWS V14.01,2013-04-14 19:35:00,
2013-04-14 14:37:00,75.4,24.6,29.62,ESE,123,6.3,6.3,15,0.00,,---,0.00,VWS V14.01,2013-04-14 19:37:00,
2013-04-14 14:38:00,75.4,24.6,29.62,SE,146,5.8,5.8,15,0.00,,---,0.00,VWS V14.01,2013-04-14 19:38:00,
2013-04-14 14:39:00,75.4,24.6,29.62,SE,146,5.8,5.8,15,0.00,,---,0.00,VWS V14.01,2013-04-14 19:39:00,
2013-04-14 14:40:00,75.4,24.6,29.62,SSW,193,8.1,8.1,15,0.00,,---,0.00,VWS V14.01,2013-04-14 19:40:00,
2013-04-14 14:42:00,75.4,24.6,29.62,SW,220,5.4,8.1,15,0.00,,---,0.00,VWS V14.01,2013-04-14 19:42:00,
2013-04-14 14:43:00,75.4,24.6,29.62,SW,220,5.4,8.1,15,0.00,,---,0.00,VWS V14.01,2013-04-14 19:43:00,
2013-04-14 14:44:00,75.4,24.6,29.62,SW,220,5.4,5.4,15,0.00,,---,0.00,VWS V14.01,2013-04-14 19:44:00,
2013-04-14 14:45:00,75.4,24.6,29.62,SW,220,5.4,5.4,15,0.00,,---,0.00,VWS V14.01,2013-04-14 19:45:00,
2013-04-14 14:48:00,75.2,24.4,29.62,SW,235,10.1,10.1,15,0.00,,---,0.00,VWS V14.01,2013-04-14 19:48:00,
2013-04-14 14:49:00,75.2,24.4,29.59,SW,235,10.1,10.1,15,0.00,,---,0.00,VWS V14.01,2013-04-14 19:49:00,
2013-04-14 14:50:00,75.2,24.4,29.59,SW,235,10.1,10.1,15,0.00,,---,0.00,VWS V14.01,2013-04-14 19:50:00,
2013-04-14 14:53:00,75.0,25.8,29.59,SW,235,10.1,10.1,16,0.00,,---,0.00,VWS V14.01,2013-04-14 19:53:00,
2013-04-14 14:54:00,75.0,25.8,29.59,ESE,121,4.9,4.9,16,0.00,,---,0.00,VWS V14.01,2013-04-14 19:54:00,
2013-04-14 14:55:00,75.0,25.8,29.59,ESE,121,4.9,4.9,16,0.00,,---,0.00,VWS V14.01,2013-04-14 19:55:00,
2013-04-14 14:58:00,75.0,25.8,29.59,SSE,155,5.8,5.8,16,0.00,,---,0.00,VWS V14.01,2013-04-14 19:58:00,
2013-04-14 15:00:00,75.0,25.8,29.59,SE,136,4.9,5.8,16,0.00,,---,0.00,VWS V14.01,2013-04-14 20:00:00,
2013-04-14 15:03:00,74.7,25.5,29.50,SW,231,2.7,4.9,16,0.00,,---,0.00,VWS V14.01,2013-04-14 20:03:00,
2013-04-14 15:05:00,74.7,25.5,29.50,SW,231,2.7,2.7,16,0.00,,---,0.00,VWS V14.01,2013-04-14 20:05:00,
2013-04-14 15:08:00,74.7,25.5,29.50,SW,231,2.7,2.7,16,0.00,,---,0.00,VWS V14.01,2013-04-14 20:08:00,
2013-04-14 15:10:00,74.7,25.5,29.50,SSW,211,3.6,4.9,16,0.00,,---,0.00,VWS V14.01,2013-04-14 20:10:00,
2013-04-14 15:13:00,74.7,25.5,29.50,SW,221,4.0,7.6,16,0.00,,---,0.00,VWS V14.01,2013-04-14 20:13:00,
2013-04-14 15:15:00,74.5,25.4,29.50,SW,221,4.0,4.0,16,0.00,,---,0.00,VWS V14.01,2013-04-14 20:15:00,
2013-04-14 15:18:00,74.5,25.4,29.44,SW,221,4.0,4.0,16,0.00,,---,0.00,VWS V14.01,2013-04-14 20:18:00,
2013-04-14 15:19:00,74.5,25.4,29.44,SW,221,4.0,4.0,16,0.00,,---,0.00,VWS V14.01,2013-04-14 20:19:00,
2013-04-14 15:20:00,74.5,25.4,29.44,SW,221,4.0,4.0,16,0.00,,---,0.00,VWS V14.01,2013-04-14 20:20:00,
2013-04-14 15:23:00,74.5,25.4,29.44,South,185,10.1,10.1,16,0.00,,---,0.00,VWS V14.01,2013-04-14 20:23:00,
2013-04-14 15:24:00,74.5,25.4,29.44,South,185,10.1,10.1,16,0.00,,---,0.00,VWS V14.01,2013-04-14 20:24:00,
2013-04-14 15:25:00,74.1,25.1,29.44,South,185,10.1,10.1,16,0.00,,---,0.00,VWS V14.01,2013-04-14 20:25:00,
2013-04-14 15:29:00,73.9,25.0,29.44,South,186,4.0,4.0,16,0.00,,---,0.00,VWS V14.01,2013-04-14 20:29:00,
2013-04-14 15:30:00,73.9,25.0,29.44,South,173,4.0,4.0,16,0.00,,---,0.00,VWS V14.01,2013-04-14 20:30:00,
2013-04-14 15:34:00,73.6,24.7,29.44,SW,230,4.0,4.0,16,0.00,,---,0.00,VWS V14.01,2013-04-14 20:34:00,
2013-04-14 15:35:00,73.6,24.7,29.44,South,177,8.1,8.1,16,0.00,,---,0.00,VWS V14.01,2013-04-14 20:35:00,
2013-04-14 15:36:00,73.6,24.7,29.32,South,177,8.1,8.1,16,0.00,,---,0.00,VWS V14.01,2013-04-14 20:36:00,
2013-04-14 15:39:00,73.4,24.5,29.32,West,268,9.6,9.6,16,0.00,,---,0.00,VWS V14.01,2013-04-14 20:39:00,
2013-04-14 15:41:00,73.4,24.5,29.32,SSW,203,2.7,2.7,16,0.00,,---,0.00,VWS V14.01,2013-04-14 20:41:00,
2013-04-14 15:44:00,73.2,24.4,29.32,SW,224,2.7,2.7,16,0.00,,---,0.00,VWS V14.01,2013-04-14 20:44:00,
2013-04-14 15:46:00,73.0,24.2,29.32,South,187,5.8,5.8,16,0.00,,---,0.00,VWS V14.01,2013-04-14 20:46:00,
2013-04-14 15:47:00,73.0,24.2,29.32,South,187,5.8,5.8,16,0.00,,---,0.00,VWS V14.01,2013-04-14 20:47:00,
2013-04-14 15:49:00,73.0,24.2,29.32,SSW,194,7.2,7.2,16,0.00,,---,0.00,VWS V14.01,2013-04-14 20:49:00,
2013-04-14 15:51:00,72.9,24.1,29.29,SSW,194,7.2,7.2,16,0.00,,---,0.00,VWS V14.01,2013-04-14 20:51:00,
2013-04-14 15:52:00,72.9,24.1,29.29,SSW,194,7.2,7.2,16,0.00,,---,0.00,VWS V14.01,2013-04-14 20:52:00,
2013-04-14 15:54:00,72.9,24.1,29.29,South,171,7.6,7.6,16,0.00,,---,0.00,VWS V14.01,2013-04-14 20:54:00,
2013-04-14 15:57:00,72.7,23.9,29.29,South,171,7.6,7.6,16,0.00,,---,0.00,VWS V14.01,2013-04-14 20:57:00,
2013-04-14 15:59:00,72.7,23.9,29.29,East,95,5.4,5.4,16,0.00,,---,0.00,VWS V14.01,2013-04-14 20:59:00,
2013-04-14 16:02:00,72.7,23.9,29.29,ESE,113,5.4,5.4,16,0.00,,---,0.00,VWS V14.01,2013-04-14 21:02:00,
2013-04-14 16:04:00,72.5,23.8,29.26,ESE,113,5.4,5.4,16,0.00,,---,0.00,VWS V14.01,2013-04-14 21:04:00,
2013-04-14 16:07:00,72.5,23.8,29.26,SE,141,3.6,3.6,16,0.00,,---,0.00,VWS V14.01,2013-04-14 21:07:00,
2013-04-14 16:09:00,72.5,23.8,29.26,SE,141,3.6,3.6,16,0.00,,---,0.00,VWS V14.01,2013-04-14 21:09:00,
2013-04-14 16:12:00,72.5,23.8,29.26,SE,141,3.6,3.6,16,0.00,,---,0.00,VWS V14.01,2013-04-14 21:12:00,
2013-04-14 16:14:00,72.3,23.6,29.26,SE,141,3.6,3.6,16,0.00,,---,0.00,VWS V14.01,2013-04-14 21:14:00,
2013-04-14 16:17:00,72.3,23.6,29.26,SSW,205,2.7,2.7,16,0.00,,---,0.00,VWS V14.01,2013-04-14 21:17:00,
2013-04-14 16:18:00,72.3,23.6,29.26,SSW,205,2.7,2.7,16,0.00,,---,0.00,VWS V14.01,2013-04-14 21:18:00,
2013-04-14 16:19:00,72.3,23.6,29.26,South,176,3.1,4.0,16,0.00,,---,0.00,VWS V14.01,2013-04-14 21:19:00,
2013-04-14 16:23:00,72.3,23.6,29.26,South,176,3.1,3.1,16,0.00,,---,0.00,VWS V14.01,2013-04-14 21:23:00,
2013-04-14 16:24:00,72.3,23.6,29.26,SSE,158,5.4,5.4,16,0.00,,---,0.00,VWS V14.01,2013-04-14 21:24:00,
2013-04-14 16:28:00,72.1,23.5,29.26,SSE,158,5.4,5.4,16,0.00,,---,0.00,VWS V14.01,2013-04-14 21:28:00,
2013-04-14 16:29:00,72.1,23.5,29.26,SSE,159,5.4,5.4,16,0.00,,---,0.00,VWS V14.01,2013-04-14 21:29:00,
2013-04-14 16:30:00,72.1,23.5,29.26,SSE,159,5.4,5.4,16,0.00,,---,0.00,VWS V14.01,2013-04-14 21:30:00,
2013-04-14 16:33:00,72.1,23.5,29.29,SSW,212,3.6,3.6,16,0.00,,---,0.00,VWS V14.01,2013-04-14 21:33:00,
2013-04-14 16:34:00,72.1,23.5,29.29,SSW,203,8.1,8.1,16,0.00,,---,0.00,VWS V14.01,2013-04-14 21:34:00,
2013-04-14 16:35:00,72.1,23.5,29.29,SSW,203,8.1,8.1,16,0.00,,---,0.00,VWS V14.01,2013-04-14 21:35:00,
2013-04-14 16:38:00,72.1,23.5,29.29,SW,218,3.1,3.1,16,0.00,,---,0.00,VWS V14.01,2013-04-14 21:38:00,
2013-04-14 16:39:00,72.1,23.5,29.29,SW,218,3.1,3.1,16,0.00,,---,0.00,VWS V14.01,2013-04-14 21:39:00,
2013-04-14 16:40:00,72.1,23.5,29.29,SW,218,3.1,3.1,16,0.00,,---,0.00,VWS V14.01,2013-04-14 21:40:00,
2013-04-14 16:43:00,72.1,23.5,29.29,West,265,5.8,5.8,16,0.00,,---,0.00,VWS V14.01,2013-04-14 21:43:00,
2013-04-14 16:44:00,72.1,23.5,29.29,SSW,204,3.6,3.6,16,0.00,,---,0.00,VWS V14.01,2013-04-14 21:44:00,
2013-04-14 16:45:00,72.1,23.5,29.29,SSW,204,3.6,3.6,16,0.00,,---,0.00,VWS V14.01,2013-04-14 21:45:00,
2013-04-14 16:48:00,72.1,23.5,29.29,SSW,213,4.9,4.9,16,0.00,,---,0.00,VWS V14.01,2013-04-14 21:48:00,
2013-04-14 16:49:00,72.1,23.5,29.29,SSW,213,4.9,4.9,16,0.00,,---,0.00,VWS V14.01,2013-04-14 21:49:00,
2013-04-14 16:50:00,72.1,23.5,29.29,SSW,213,4.9,4.9,16,0.00,,---,0.00,VWS V14.01,2013-04-14 21:50:00,
2013-04-14 16:53:00,72.1,23.5,29.29,SW,218,2.7,2.7,16,0.00,,---,0.00,VWS V14.01,2013-04-14 21:53:00,
2013-04-14 16:54:00,72.1,23.5,29.29,SW,218,2.7,2.7,16,0.00,,---,0.00,VWS V14.01,2013-04-14 21:54:00,
2013-04-14 16:55:00,72.1,23.5,29.29,SW,218,2.7,2.7,16,0.00,,---,0.00,VWS V14.01,2013-04-14 21:55:00,
2013-04-14 16:57:00,72.1,23.5,29.21,SW,222,5.4,5.4,16,0.00,,---,0.00,VWS V14.01,2013-04-14 21:57:00,
2013-04-14 16:59:00,72.1,23.5,29.21,SW,222,5.4,5.4,16,0.00,,---,0.00,VWS V14.01,2013-04-14 21:59:00,
2013-04-14 17:00:00,72.1,23.5,29.21,South,179,3.1,3.1,16,0.00,,---,0.00,VWS V14.01,2013-04-14 22:00:00,
2013-04-14 17:02:00,72.1,23.5,29.21,SSW,213,4.9,4.9,16,0.00,,---,0.00,VWS V14.01,2013-04-14 22:02:00,
2013-04-14 17:04:00,72.3,23.6,29.21,SSW,213,2.7,4.9,16,0.00,,---,0.00,VWS V14.01,2013-04-14 22:04:00,
2013-04-14 17:06:00,72.3,23.6,29.21,SSW,213,2.7,2.7,16,0.00,,---,0.00,VWS V14.01,2013-04-14 22:06:00,
2013-04-14 17:08:00,72.3,23.6,29.21,SSW,195,2.7,5.8,16,0.00,,---,0.00,VWS V14.01,2013-04-14 22:08:00,
2013-04-14 17:09:00,72.3,23.6,29.21,SSW,195,2.7,2.7,16,0.00,,---,0.00,VWS V14.01,2013-04-14 22:09:00,
2013-04-14 17:11:00,72.3,23.6,29.21,SW,215,6.3,6.3,16,0.00,,---,0.00,VWS V14.01,2013-04-14 22:11:00,
2013-04-14 17:14:00,72.3,23.6,29.21,SSW,203,3.1,3.1,16,0.00,,---,0.00,VWS V14.01,2013-04-14 22:14:00,
2013-04-14 17:15:00,72.3,23.6,29.21,SSW,203,3.1,3.1,16,0.00,,---,0.00,VWS V14.01,2013-04-14 22:15:00,
2013-04-14 17:17:00,72.3,23.6,29.26,South,174,5.8,5.8,16,0.00,,---,0.00,VWS V14.01,2013-04-14 22:17:00,
2013-04-14 17:19:00,72.3,23.6,29.26,SSE,153,5.4,5.4,16,0.00,,---,0.00,VWS V14.01,2013-04-14 22:19:00,
2013-04-14 17:20:00,72.1,23.5,29.26,SSE,162,6.3,6.3,16,0.00,,---,0.00,VWS V14.01,2013-04-14 22:20:00,
2013-04-14 17:22:00,72.1,23.5,29.26,SSE,162,6.3,6.3,16,0.00,,---,0.00,VWS V14.01,2013-04-14 22:22:00,
2013-04-14 17:24:00,72.1,23.5,29.26,SE,144,7.6,7.6,16,0.00,,---,0.00,VWS V14.01,2013-04-14 22:24:00,
2013-04-14 17:25:00,72.1,23.5,29.26,SE,144,7.6,7.6,16,0.00,,---,0.00,VWS V14.01,2013-04-14 22:25:00,
2013-04-14 17:27:00,72.1,23.5,29.26,SSE,168,3.6,3.6,16,0.00,,---,0.00,VWS V14.01,2013-04-14 22:27:00,
2013-04-14 17:29:00,72.1,23.5,29.26,WSW,246,4.0,4.0,16,0.00,,---,0.00,VWS V14.01,2013-04-14 22:29:00,
2013-04-14 17:30:00,72.1,23.5,29.26,WSW,246,4.0,4.0,16,0.00,,---,0.00,VWS V14.01,2013-04-14 22:30:00,
2013-04-14 17:33:00,72.1,23.5,29.26,SSE,163,6.3,6.3,16,0.00,,---,0.00,VWS V14.01,2013-04-14 22:33:00,
2013-04-14 17:34:00,72.0,23.4,29.26,South,184,3.6,3.6,16,0.00,,---,0.00,VWS V14.01,2013-04-14 22:34:00,
2013-04-14 17:35:00,72.0,23.4,29.26,South,184,3.6,3.6,16,0.00,,---,0.00,VWS V14.01,2013-04-14 22:35:00,
2013-04-14 17:38:00,72.0,23.4,29.21,South,182,7.2,7.2,16,0.00,,---,0.00,VWS V14.01,2013-04-14 22:38:00,
2013-04-14 17:39:00,72.0,23.4,29.21,South,182,7.2,7.2,16,0.00,,---,0.00,VWS V14.01,2013-04-14 22:39:00,
2013-04-14 17:40:00,72.0,23.4,29.21,SSW,203,3.1,3.1,16,0.00,,---,0.00,VWS V14.01,2013-04-14 22:40:00,
2013-04-14 17:43:00,72.0,23.4,29.21,SSW,203,3.1,3.1,16,0.00,,---,0.00,VWS V14.01,2013-04-14 22:43:00,
2013-04-14 17:44:00,71.8,23.2,29.21,SSW,210,0.0,0.0,16,0.00,,---,0.00,VWS V14.01,2013-04-14 22:44:00,
2013-04-14 17:45:00,71.8,23.2,29.21,SSW,210,0.0,0.0,16,0.00,,---,0.00,VWS V14.01,2013-04-14 22:45:00,
2013-04-14 17:48:00,71.8,23.2,29.23,South,188,2.7,2.7,16,0.00,,---,0.00,VWS V14.01,2013-04-14 22:48:00,
2013-04-14 17:49:00,71.8,23.2,29.23,East,98,3.1,3.1,16,0.00,,---,0.00,VWS V14.01,2013-04-14 22:49:00,
2013-04-14 17:50:00,71.8,23.2,29.23,East,98,3.1,3.1,16,0.00,,---,0.00,VWS V14.01,2013-04-14 22:50:00,
2013-04-14 17:53:00,71.8,23.2,29.23,SW,221,3.1,3.1,16,0.00,,---,0.00,VWS V14.01,2013-04-14 22:53:00,
2013-04-14 17:54:00,71.8,23.2,29.23,SW,221,3.1,3.1,16,0.00,,---,0.00,VWS V14.01,2013-04-14 22:54:00,
2013-04-14 17:55:00,71.8,23.2,29.23,SW,221,3.1,3.1,16,0.00,,---,0.00,VWS V14.01,2013-04-14 22:55:00,
2013-04-14 17:58:00,71.8,23.2,29.23,SE,142,4.0,4.0,16,0.00,,---,0.00,VWS V14.01,2013-04-14 22:58:00,
2013-04-14 18:00:00,71.8,23.2,29.23,SSE,167,2.2,4.0,16,0.00,,---,0.00,VWS V14.01,2013-04-14 23:00:00,
2013-04-14 18:01:00,71.8,23.2,29.23,SW,217,4.9,4.9,16,0.00,,---,0.00,VWS V14.01,2013-04-14 23:01:00,
2013-04-14 18:03:00,71.8,23.2,29.23,South,183,4.0,5.8,16,0.00,,---,0.00,VWS V14.01,2013-04-14 23:03:00,
2013-04-14 18:05:00,71.8,23.2,29.23,SW,226,3.6,4.0,16,0.00,,---,0.00,VWS V14.01,2013-04-14 23:05:00,
2013-04-14 18:06:00,71.8,23.2,29.23,SSW,204,3.1,3.6,16,0.00,,---,0.00,VWS V14.01,2013-04-14 23:06:00,
2013-04-14 18:08:00,71.6,23.1,29.23,West,267,5.8,5.8,16,0.00,,---,0.00,VWS V14.01,2013-04-14 23:08:00,
2013-04-14 18:10:00,71.6,23.1,29.23,West,267,5.8,5.8,16,0.00,,---,0.00,VWS V14.01,2013-04-14 23:10:00,
2013-04-14 18:11:00,71.6,23.1,29.23,SSW,206,2.7,5.8,16,0.00,,---,0.00,VWS V14.01,2013-04-14 23:11:00,
2013-04-14 18:12:00,71.6,23.1,29.23,SSW,206,2.7,2.7,16,0.00,,---,0.00,VWS V14.01,2013-04-14 23:12:00,
2013-04-14 18:13:00,71.6,23.1,29.23,SSW,208,2.7,4.0,16,0.00,,---,0.00,VWS V14.01,2013-04-14 23:13:00,
2013-04-14 18:15:00,71.6,23.1,29.23,WSW,240,3.6,3.6,16,0.00,,---,0.00,VWS V14.01,2013-04-14 23:15:00,
2013-04-14 18:16:00,71.6,23.1,29.23,WSW,240,3.6,3.6,16,0.00,,---,0.00,VWS V14.01,2013-04-14 23:16:00,
2013-04-14 18:17:00,71.6,23.1,29.23,SSW,207,3.6,3.6,16,0.00,,---,0.00,VWS V14.01,2013-04-14 23:17:00,
2013-04-14 18:18:00,71.6,23.1,29.23,SSW,207,3.6,3.6,16,0.00,,---,0.00,VWS V14.01,2013-04-14 23:18:00,
2013-04-14 18:20:00,71.6,23.1,29.23,SSW,196,3.1,3.1,16,0.00,,---,0.00,VWS V14.01,2013-04-14 23:20:00,
2013-04-14 18:22:00,71.6,23.1,29.23,SSW,196,3.1,3.1,16,0.00,,---,0.00,VWS V14.01,2013-04-14 23:22:00,
2013-04-14 18:23:00,71.6,23.1,29.23,SSW,204,2.7,2.7,16,0.00,,---,0.00,VWS V14.01,2013-04-14 23:23:00,
2013-04-14 18:25:00,71.6,23.1,29.23,SSW,204,2.7,2.7,16,0.00,,---,0.00,VWS V14.01,2013-04-14 23:25:00,
2013-04-14 18:27:00,71.2,24.2,29.23,SSW,204,2.7,2.7,17,0.00,,---,0.00,VWS V14.01,2013-04-14 23:27:00,
2013-04-14 18:29:00,71.2,24.2,29.23,SW,228,3.6,4.0,17,0.00,,---,0.00,VWS V14.01,2013-04-14 23:29:00,
2013-04-14 18:30:00,71.2,24.2,29.23,SW,234,0.0,2.2,17,0.00,,---,0.00,VWS V14.01,2013-04-14 23:30:00,
2013-04-14 18:32:00,71.2,24.2,29.23,WSW,248,2.7,2.7,17,0.00,,---,0.00,VWS V14.01,2013-04-14 23:32:00,
2013-04-14 18:34:00,70.9,23.9,29.23,WSW,240,2.7,2.7,17,0.00,,---,0.00,VWS V14.01,2013-04-14 23:34:00,
2013-04-14 18:35:00,70.9,23.9,29.23,WSW,240,2.7,2.7,17,0.00,,---,0.00,VWS V14.01,2013-04-14 23:35:00,
2013-04-14 18:37:00,70.9,23.9,29.23,SW,222,0.0,2.7,17,0.00,,---,0.00,VWS V14.01,2013-04-14 23:37:00,
2013-04-14 18:39:00,70.7,23.8,29.23,SW,216,2.7,2.7,17,0.00,,---,0.00,VWS V14.01,2013-04-14 23:39:00,
2013-04-14 18:40:00,70.7,23.8,29.23,SW,216,2.7,2.7,17,0.00,,---,0.00,VWS V14.01,2013-04-14 23:40:00,
2013-04-14 18:42:00,70.7,23.8,29.23,ENE,62,2.7,2.7,17,0.00,,---,0.00,VWS V14.01,2013-04-14 23:42:00,
2013-04-14 18:44:00,70.3,23.5,29.23,SSW,212,2.7,2.7,17,0.00,,---,0.00,VWS V14.01,2013-04-14 23:44:00,
2013-04-14 18:45:00,70.3,23.5,29.23,SSW,211,3.6,3.6,17,0.00,,---,0.00,VWS V14.01,2013-04-14 23:45:00,
2013-04-14 18:47:00,70.3,23.5,29.21,SW,217,2.7,2.7,17,0.00,,---,0.00,VWS V14.01,2013-04-14 23:47:00,
2013-04-14 18:48:00,70.3,23.5,29.21,SW,217,2.7,2.7,17,0.00,,---,0.00,VWS V14.01,2013-04-14 23:48:00,
2013-04-14 18:49:00,70.3,23.5,29.21,SW,217,2.7,2.7,17,0.00,,---,0.00,VWS V14.01,2013-04-14 23:49:00,
2013-04-14 18:51:00,70.3,23.5,29.21,SSW,206,3.6,3.6,17,0.00,,---,0.00,VWS V14.01,2013-04-14 23:51:00,
2013-04-14 18:53:00,70.3,23.5,29.21,SW,236,2.7,2.7,17,0.00,,---,0.00,VWS V14.01,2013-04-14 23:53:00,
2013-04-14 18:54:00,70.0,23.2,29.21,SW,236,2.7,2.7,17,0.00,,---,0.00,VWS V14.01,2013-04-14 23:54:00,
2013-04-14 18:56:00,70.0,23.2,29.21,South,170,2.7,2.7,17,0.00,,---,0.00,VWS V14.01,2013-04-14 23:56:00,
2013-04-14 18:58:00,70.0,23.2,29.21,SSW,196,6.3,6.3,17,0.00,,---,0.00,VWS V14.01,2013-04-14 23:58:00,
2013-04-14 18:59:00,69.4,22.8,29.21,SSW,196,6.3,6.3,17,0.00,,---,0.00,VWS V14.01,2013-04-14 23:59:00,
2013-04-14 19:01:00,69.4,22.8,29.23,SSW,196,6.3,6.3,17,0.00,,---,0.00,VWS V14.01,2013-04-15 00:01:00,
2013-04-14 19:03:00,68.9,19.4,29.23,SSW,193,4.0,4.0,15,0.00,,---,0.00,VWS V14.01,2013-04-15 00:03:00,
2013-04-14 19:05:00,68.9,19.4,29.23,South,181,2.7,2.7,15,0.00,,---,0.00,VWS V14.01,2013-04-15 00:05:00,
2013-04-14 19:08:00,68.4,19.0,29.23,South,185,0.0,0.0,15,0.00,,---,0.00,VWS V14.01,2013-04-15 00:08:00,
2013-04-14 19:10:00,67.8,18.5,29.23,South,185,0.0,0.0,15,0.00,,---,0.00,VWS V14.01,2013-04-15 00:10:00,
2013-04-14 19:13:00,67.6,18.4,29.23,SSW,209,0.0,0.0,15,0.00,,---,0.00,VWS V14.01,2013-04-15 00:13:00,
2013-04-14 19:15:00,67.6,18.4,29.23,SSW,208,0.0,0.0,15,0.00,,---,0.00,VWS V14.01,2013-04-15 00:15:00,
2013-04-14 19:18:00,67.6,18.4,29.29,SW,227,3.6,3.6,15,0.00,,---,0.00,VWS V14.01,2013-04-15 00:18:00,
2013-04-14 19:20:00,67.6,18.4,29.29,South,185,0.0,0.0,15,0.12,,---,0.12,VWS V14.01,2013-04-15 00:20:00,
2013-04-14 19:23:00,65.8,16.9,29.29,WSW,246,0.0,2.2,15,0.12,,---,0.12,VWS V14.01,2013-04-15 00:23:00,
2013-04-14 19:25:00,65.8,16.9,29.29,SSW,197,0.0,0.0,15,0.12,,---,0.12,VWS V14.01,2013-04-15 00:25:00,
2013-04-14 19:28:00,65.8,16.9,29.29,SSW,197,2.2,2.2,15,0.12,,---,0.12,VWS V14.01,2013-04-15 00:28:00,
2013-04-14 19:30:00,64.8,16.1,29.29,West,281,2.7,2.7,15,0.12,,---,0.12,VWS V14.01,2013-04-15 00:30:00,
2013-04-14 19:36:00,63.5,19.3,29.21,West,281,0.0,0.0,18,0.00,,---,0.12,VWS V14.01,2013-04-15 00:36:00,
2013-04-14 19:41:00,63.0,18.8,29.21,NNW,332,0.0,2.2,18,0.16,,---,0.16,VWS V14.01,2013-04-15 00:41:00,
2013-04-14 19:42:00,63.0,18.8,29.21,NNW,332,0.0,2.2,18,0.16,,---,0.16,VWS V14.01,2013-04-15 00:42:00,
2013-04-14 19:46:00,62.6,18.5,29.21,WSW,237,2.7,2.7,18,0.16,,---,0.16,VWS V14.01,2013-04-15 00:46:00,
2013-04-14 19:47:00,62.6,18.5,29.21,WSW,237,2.7,2.7,18,0.16,,---,0.16,VWS V14.01,2013-04-15 00:47:00,
2013-04-14 19:51:00,62.4,19.6,29.21,NE,52,0.0,2.2,19,0.16,,---,0.16,VWS V14.01,2013-04-15 00:51:00,
2013-04-14 19:52:00,62.2,19.5,29.21,WSW,239,2.2,2.2,19,0.16,,---,0.16,VWS V14.01,2013-04-15 00:52:00,
2013-04-14 19:57:00,61.9,19.2,29.21,NW,315,0.0,5.8,19,0.16,,---,0.16,VWS V14.01,2013-04-15 00:57:00,
2013-04-14 20:02:00,61.3,18.8,29.23,North,0,3.6,3.6,19,0.16,,---,0.16,VWS V14.01,2013-04-15 01:02:00,
2013-04-14 20:07:00,60.6,15.6,29.23,North,10,3.6,3.6,17,0.16,,---,0.16,VWS V14.01,2013-04-15 01:07:00,
2013-04-14 20:12:00,60.4,15.4,29.23,NW,305,5.4,5.4,17,0.16,,---,0.16,VWS V14.01,2013-04-15 01:12:00,
2013-04-14 20:17:00,60.1,15.1,29.23,WSW,248,2.2,2.2,17,0.16,,---,0.16,VWS V14.01,2013-04-15 01:17:00,
2013-04-14 20:18:00,60.1,15.1,29.23,NNW,343,0.0,2.7,17,0.16,,---,0.16,VWS V14.01,2013-04-15 01:18:00,
2013-04-14 20:22:00,59.9,15.0,29.23,NNW,328,0.0,0.0,17,0.04,,---,0.16,VWS V14.01,2013-04-15 01:22:00,
2013-04-14 20:23:00,59.9,15.0,29.23,WNW,291,4.0,4.0,17,0.04,,---,0.16,VWS V14.01,2013-04-15 01:23:00,
2013-04-14 20:27:00,59.9,15.0,29.23,North,353,0.0,3.1,17,0.04,,---,0.16,VWS V14.01,2013-04-15 01:27:00,
2013-04-14 20:28:00,59.7,14.9,29.23,West,276,5.8,5.8,17,0.04,,---,0.16,VWS V14.01,2013-04-15 01:28:00,
2013-04-14 20:32:00,59.7,14.9,29.23,West,280,0.0,3.6,17,0.00,,---,0.16,VWS V14.01,2013-04-15 01:32:00,
2013-04-14 20:33:00,59.7,14.9,29.23,North,353,0.0,3.6,17,0.00,,---,0.16,VWS V14.01,2013-04-15 01:33:00,
2013-04-14 20:37:00,59.5,14.7,29.23,North,0,3.1,3.6,17,0.00,,---,0.16,VWS V14.01,2013-04-15 01:37:00,
2013-04-14 20:38:00,59.5,14.7,29.23,North,357,3.6,3.6,17,0.00,,---,0.16,VWS V14.01,2013-04-15 01:38:00,
2013-04-14 20:42:00,59.4,14.6,29.23,NNW,339,0.0,0.0,17,0.00,,---,0.16,VWS V14.01,2013-04-15 01:42:00,
2013-04-14 20:43:00,59.4,14.6,29.23,North,4,0.0,0.0,17,0.00,,---,0.16,VWS V14.01,2013-04-15 01:43:00,
2013-04-14 20:48:00,59.4,14.6,29.35,NNW,344,0.0,0.0,17,0.00,,---,0.16,VWS V14.01,2013-04-15 01:48:00,
2013-04-14 20:53:00,59.4,14.6,29.35,NNW,332,0.0,0.0,17,0.00,,---,0.16,VWS V14.01,2013-04-15 01:53:00,
2013-04-14 20:58:00,59.2,14.4,29.35,WNW,295,0.0,0.0,17,0.00,,---,0.16,VWS V14.01,2013-04-15 01:58:00,
2013-04-14 20:59:00,59.2,14.4,29.35,West,278,2.2,2.2,17,0.00,,---,0.16,VWS V14.01,2013-04-15 01:59:00,
2013-04-14 21:03:00,59.2,14.4,29.56,WNW,302,2.7,2.7,17,0.00,,---,0.16,VWS V14.01,2013-04-15 02:03:00,
2013-04-14 21:04:00,59.2,14.4,29.56,WNW,288,3.1,3.1,17,0.00,,---,0.16,VWS V14.01,2013-04-15 02:04:00,
2013-04-14 21:08:00,59.0,14.3,29.56,North,357,0.0,0.0,17,0.00,,---,0.16,VWS V14.01,2013-04-15 02:08:00,
2013-04-14 21:09:00,59.0,14.3,29.56,WNW,300,0.0,2.2,17,0.00,,---,0.16,VWS V14.01,2013-04-15 02:09:00,
2013-04-14 21:13:00,59.0,14.3,29.56,NNE,21,0.0,0.0,17,0.00,,---,0.16,VWS V14.01,2013-04-15 02:13:00,
2013-04-14 21:14:00,59.0,14.3,29.56,NNE,21,0.0,0.0,17,0.00,,---,0.16,VWS V14.01,2013-04-15 02:14:00,
2013-04-14 21:18:00,59.0,14.3,29.77,North,7,0.0,0.0,17,0.00,,---,0.16,VWS V14.01,2013-04-15 02:18:00,
2013-04-14 21:19:00,59.0,14.3,29.77,North,11,0.0,0.0,17,0.00,,---,0.16,VWS V14.01,2013-04-15 02:19:00,
2013-04-14 21:23:00,59.0,14.3,29.77,NNW,343,0.0,0.0,17,0.00,,---,0.16,VWS V14.01,2013-04-15 02:23:00,
2013-04-14 21:24:00,59.0,14.3,29.77,NNW,343,0.0,0.0,17,0.00,,---,0.16,VWS V14.01,2013-04-15 02:24:00,
2013-04-14 21:28:00,59.0,14.3,29.77,NNW,348,0.0,0.0,17,0.00,,---,0.16,VWS V14.01,2013-04-15 02:28:00,
2013-04-14 21:29:00,59.0,14.3,29.77,NNW,348,0.0,0.0,17,0.00,,---,0.16,VWS V14.01,2013-04-15 02:29:00,
2013-04-14 21:33:00,58.8,14.1,30.06,North,350,0.0,0.0,17,0.00,,---,0.16,VWS V14.01,2013-04-15 02:33:00,
2013-04-14 21:34:00,58.8,14.1,30.06,North,350,0.0,0.0,17,0.00,,---,0.16,VWS V14.01,2013-04-15 02:34:00,
2013-04-14 21:38:00,58.8,14.1,30.06,North,350,0.0,0.0,17,0.00,,---,0.16,VWS V14.01,2013-04-15 02:38:00,
2013-04-14 21:39:00,58.8,14.1,30.06,WNW,297,0.0,0.0,17,0.00,,---,0.16,VWS V14.01,2013-04-15 02:39:00,
2013-04-14 21:43:00,58.6,14.0,30.06,WNW,299,0.0,0.0,17,0.00,,---,0.16,VWS V14.01,2013-04-15 02:43:00,
2013-04-14 21:44:00,58.6,14.0,30.06,WNW,299,0.0,0.0,17,0.00,,---,0.16,VWS V14.01,2013-04-15 02:44:00,
2013-04-14 21:48:00,58.6,14.0,29.85,NNE,15,0.0,0.0,17,0.00,,---,0.16,VWS V14.01,2013-04-15 02:48:00,
2013-04-14 21:49:00,58.6,14.0,29.85,NNE,15,0.0,0.0,17,0.00,,---,0.16,VWS V14.01,2013-04-15 02:49:00,
2013-04-14 21:53:00,58.6,14.0,29.85,WNW,292,0.0,0.0,17,0.00,,---,0.16,VWS V14.01,2013-04-15 02:53:00,
2013-04-14 21:54:00,58.6,14.0,29.85,WNW,292,0.0,0.0,17,0.00,,---,0.16,VWS V14.01,2013-04-15 02:54:00,
2013-04-14 21:58:00,58.8,14.1,29.85,WNW,295,0.0,3.1,17,0.00,,---,0.16,VWS V14.01,2013-04-15 02:58:00,
2013-04-14 21:59:00,58.8,14.1,29.85,WNW,295,0.0,0.0,17,0.00,,---,0.16,VWS V14.01,2013-04-15 02:59:00,
2013-04-14 22:03:00,58.6,14.0,29.68,West,277,0.0,0.0,17,0.00,,---,0.16,VWS V14.01,2013-04-15 03:03:00,
2013-04-14 22:04:00,58.6,14.0,29.68,West,277,0.0,0.0,17,0.00,,---,0.16,VWS V14.01,2013-04-15 03:04:00,
2013-04-14 22:09:00,58.5,13.8,29.68,WNW,303,0.0,0.0,17,0.00,,---,0.16,VWS V14.01,2013-04-15 03:09:00,
2013-04-14 22:10:00,58.5,13.8,29.68,WNW,294,0.0,0.0,17,0.00,,---,0.16,VWS V14.01,2013-04-15 03:10:00,
2013-04-14 22:14:00,58.3,13.7,29.68,WNW,303,0.0,0.0,17,0.00,,---,0.16,VWS V14.01,2013-04-15 03:14:00,
2013-04-14 22:15:00,58.3,13.7,29.68,North,353,0.0,0.0,17,0.00,,---,0.16,VWS V14.01,2013-04-15 03:15:00,
2013-04-14 22:19:00,58.3,13.7,29.68,NW,315,0.0,3.1,17,0.00,,---,0.16,VWS V14.01,2013-04-15 03:19:00,
2013-04-14 22:20:00,58.3,13.7,29.68,NW,315,0.0,0.0,17,0.00,,---,0.16,VWS V14.01,2013-04-15 03:20:00,
2013-04-14 22:24:00,58.1,13.5,29.68,WNW,298,2.7,2.7,17,0.00,,---,0.16,VWS V14.01,2013-04-15 03:24:00,
2013-04-14 22:25:00,58.1,13.5,29.68,WNW,295,2.2,3.1,17,0.00,,---,0.16,VWS V14.01,2013-04-15 03:25:00,
2013-04-14 22:29:00,58.1,13.5,29.68,WNW,295,3.1,4.0,17,0.00,,---,0.16,VWS V14.01,2013-04-15 03:29:00,
2013-04-14 22:30:00,58.1,13.5,29.68,NW,305,0.0,4.0,17,0.00,,---,0.16,VWS V14.01,2013-04-15 03:30:00,
2013-04-14 22:34:00,58.1,13.5,29.68,NW,305,0.0,0.0,17,0.00,,---,0.16,VWS V14.01,2013-04-15 03:34:00,
2013-04-14 22:35:00,58.1,13.5,29.68,NNW,338,2.2,2.2,17,0.00,,---,0.16,VWS V14.01,2013-04-15 03:35:00,
2013-04-14 22:39:00,57.9,13.4,29.68,WNW,290,0.0,0.0,17,0.00,,---,0.16,VWS V14.01,2013-04-15 03:39:00,
2013-04-14 22:40:00,57.9,13.4,29.68,WNW,290,0.0,0.0,17,0.00,,---,0.16,VWS V14.01,2013-04-15 03:40:00,
2013-04-14 22:44:00,57.9,13.4,29.65,North,0,0.0,0.0,17,0.00,,---,0.16,VWS V14.01,2013-04-15 03:44:00,
2013-04-14 22:45:00,57.9,13.4,29.65,North,0,0.0,0.0,17,0.00,,---,0.16,VWS V14.01,2013-04-15 03:45:00,
2013-04-14 22:49:00,57.9,13.4,29.65,NNW,334,3.1,4.0,17,0.00,,---,0.16,VWS V14.01,2013-04-15 03:49:00,
2013-04-14 22:50:00,58.1,13.5,29.65,North,6,0.0,3.1,17,0.00,,---,0.16,VWS V14.01,2013-04-15 03:50:00,
2013-04-14 22:55:00,58.1,13.5,29.65,NE,36,0.0,3.6,17,0.00,,---,0.16,VWS V14.01,2013-04-15 03:55:00,
2013-04-14 22:56:00,58.3,13.7,29.65,SSW,203,2.7,3.1,17,0.00,,---,0.16,VWS V14.01,2013-04-15 03:56:00,
2013-04-14 23:00:00,58.5,13.8,29.65,WSW,241,5.8,5.8,17,0.00,,---,0.16,VWS V14.01,2013-04-15 04:00:00,
2013-04-14 23:05:00,58.5,13.8,29.65,NNW,340,2.2,2.2,17,0.00,,---,0.16,VWS V14.01,2013-04-15 04:05:00,
2013-04-14 23:10:00,58.5,13.8,29.65,NW,321,3.1,4.9,17,0.00,,---,0.16,VWS V14.01,2013-04-15 04:10:00,
2013-04-14 23:15:00,58.3,13.7,29.74,NNE,20,3.6,7.2,17,0.00,,---,0.16,VWS V14.01,2013-04-15 04:15:00,
2013-04-14 23:16:00,58.3,13.7,29.74,NW,305,2.2,7.2,17,0.00,,---,0.16,VWS V14.01,2013-04-15 04:16:00,
2013-04-14 23:20:00,58.1,13.5,29.74,North,357,3.1,4.9,17,0.00,,---,0.16,VWS V14.01,2013-04-15 04:20:00,
2013-04-14 23:21:00,58.1,13.5,29.74,North,7,3.1,3.1,17,0.00,,---,0.16,VWS V14.01,2013-04-15 04:21:00,
2013-04-14 23:25:00,58.1,13.5,29.74,NW,311,0.0,2.7,17,0.00,,---,0.16,VWS V14.01,2013-04-15 04:25:00,
2013-04-14 23:26:00,58.1,13.5,29.74,NW,322,2.7,3.1,17,0.00,,---,0.16,VWS V14.01,2013-04-15 04:26:00,
2013-04-14 23:30:00,57.9,13.4,29.74,WNW,301,3.6,4.0,17,0.00,,---,0.16,VWS V14.01,2013-04-15 04:30:00,
2013-04-14 23:31:00,57.7,13.2,29.74,North,6,8.1,8.1,17,0.00,,---,0.16,VWS V14.01,2013-04-15 04:31:00,
2013-04-14 23:35:00,57.6,13.1,29.74,West,275,6.3,6.3,17,0.00,,---,0.16,VWS V14.01,2013-04-15 04:35:00,
2013-04-14 23:37:00,57.6,13.1,29.74,NW,318,2.2,6.3,17,0.00,,---,0.16,VWS V14.01,2013-04-15 04:37:00,
2013-04-14 23:40:00,57.6,13.1,29.74,West,275,4.9,4.9,17,0.00,,---,0.16,VWS V14.01,2013-04-15 04:40:00,
2013-04-14 23:42:00,57.4,12.9,29.74,West,280,3.1,5.8,17,0.00,,---,0.16,VWS V14.01,2013-04-15 04:42:00,
2013-04-14 23:45:00,57.4,12.9,29.74,North,5,4.0,4.9,17,0.00,,---,0.16,VWS V14.01,2013-04-15 04:45:00,
2013-04-14 23:46:00,57.4,12.9,29.74,North,0,7.6,7.6,17,0.00,,---,0.16,VWS V14.01,2013-04-15 04:46:00,
2013-04-14 23:48:00,57.4,12.9,29.74,North,353,3.6,5.4,17,0.00,,---,0.16,VWS V14.01,2013-04-15 04:48:00,
2013-04-14 23:50:00,57.4,12.9,29.74,WNW,288,3.1,3.6,17,0.00,,---,0.16,VWS V14.01,2013-04-15 04:50:00,
2013-04-14 23:51:00,57.4,12.9,29.74,North,357,8.3,8.3,17,0.00,,---,0.16,VWS V14.01,2013-04-15 04:51:00,
2013-04-14 23:53:00,57.2,12.8,29.74,NNW,339,5.4,5.4,17,0.00,,---,0.16,VWS V14.01,2013-04-15 04:53:00,
2013-04-14 23:56:00,57.2,12.8,29.74,NNW,334,2.7,5.8,17,0.00,,---,0.16,VWS V14.01,2013-04-15 04:56:00,
2013-04-14 23:58:00,57.2,12.8,29.74,NNW,336,4.9,4.9,17,0.00,,---,0.16,VWS V14.01,2013-04-15 04:58:00,